<?xml version="1.0" encoding="UTF-8" standalone="no" ?>
<gpx xmlns="http://www.topografix.com/GPX/1/1" xmlns:xsi="http://www.w3.org/2001/XMLSchema-instance" xsi:schemaLocation="http://www.topografix.com/GPX/1/1 http://www.topografix.com/GPX/1/1/gpx.xsd" version="1.1" creator="VisuGPX - https://www.visugpx.com">
  <metadata>
    <name>Le circuit des trois châteaux du Jura Alsacien en 4 jours</name>
  </metadata>
  <trk>
    <name><![CDATA[Le circuit des trois châteaux du Jura Alsacien en 4 jours]]></name>
    <extensions>
      <line xmlns="http://www.topografix.com/GPX/gpx_style/0/2">
        <color>0000FF</color>
        <width>4</width>
      </line>
    </extensions>
    <trkseg>
      <trkpt lat="47.49293" lon="7.4835">
        <ele>379</ele>
        <time>2021-06-18T16:58:22+02:00</time>
      </trkpt>
      <trkpt lat="47.49369" lon="7.48358">
        <ele>367</ele>
        <time>2021-06-18T16:58:27+02:00</time>
      </trkpt>
      <trkpt lat="47.49537" lon="7.48354">
        <ele>345</ele>
        <time>2021-06-18T16:58:32+02:00</time>
      </trkpt>
      <trkpt lat="47.49524" lon="7.4824">
        <ele>346</ele>
        <time>2021-06-18T16:58:37+02:00</time>
      </trkpt>
      <trkpt lat="47.49725" lon="7.48159">
        <ele>336</ele>
        <time>2021-06-18T16:58:42+02:00</time>
      </trkpt>
      <trkpt lat="47.49683" lon="7.47903">
        <ele>337</ele>
        <time>2021-06-18T16:58:47+02:00</time>
      </trkpt>
      <trkpt lat="47.49664" lon="7.47814">
        <ele>336</ele>
        <time>2021-06-18T16:58:52+02:00</time>
      </trkpt>
      <trkpt lat="47.49792" lon="7.4768">
        <ele>337</ele>
        <time>2021-06-18T16:58:57+02:00</time>
      </trkpt>
      <trkpt lat="47.49866" lon="7.47634">
        <ele>343</ele>
        <time>2021-06-18T16:59:02+02:00</time>
      </trkpt>
      <trkpt lat="47.49974" lon="7.47725">
        <ele>350</ele>
        <time>2021-06-18T16:59:07+02:00</time>
      </trkpt>
      <trkpt lat="47.50118" lon="7.47752">
        <ele>350</ele>
        <time>2021-06-18T16:59:12+02:00</time>
      </trkpt>
      <trkpt lat="47.50184" lon="7.47771">
        <ele>350</ele>
        <time>2021-06-18T16:59:17+02:00</time>
      </trkpt>
      <trkpt lat="47.50261" lon="7.47659">
        <ele>353</ele>
        <time>2021-06-18T16:59:22+02:00</time>
      </trkpt>
      <trkpt lat="47.50434" lon="7.47623">
        <ele>368</ele>
        <time>2021-06-18T16:59:27+02:00</time>
      </trkpt>
      <trkpt lat="47.50569" lon="7.47536">
        <ele>366</ele>
        <time>2021-06-18T16:59:32+02:00</time>
      </trkpt>
      <trkpt lat="47.50657" lon="7.47391">
        <ele>375</ele>
        <time>2021-06-18T16:59:37+02:00</time>
      </trkpt>
      <trkpt lat="47.50763" lon="7.47009">
        <ele>402</ele>
        <time>2021-06-18T16:59:42+02:00</time>
      </trkpt>
      <trkpt lat="47.50854" lon="7.46905">
        <ele>418</ele>
        <time>2021-06-18T16:59:47+02:00</time>
      </trkpt>
      <trkpt lat="47.5085" lon="7.46791">
        <ele>425</ele>
        <time>2021-06-18T16:59:52+02:00</time>
      </trkpt>
      <trkpt lat="47.50891" lon="7.46769">
        <ele>434</ele>
        <time>2021-06-18T16:59:57+02:00</time>
      </trkpt>
      <trkpt lat="47.50948" lon="7.46821">
        <ele>437</ele>
        <time>2021-06-18T17:00:02+02:00</time>
      </trkpt>
      <trkpt lat="47.5099" lon="7.46778">
        <ele>446</ele>
        <time>2021-06-18T17:00:07+02:00</time>
      </trkpt>
      <trkpt lat="47.51012" lon="7.46787">
        <ele>447</ele>
        <time>2021-06-18T17:00:12+02:00</time>
      </trkpt>
      <trkpt lat="47.51054" lon="7.46765">
        <ele>450</ele>
        <time>2021-06-18T17:00:17+02:00</time>
      </trkpt>
      <trkpt lat="47.51079" lon="7.46701">
        <ele>451</ele>
        <time>2021-06-18T17:00:22+02:00</time>
      </trkpt>
      <trkpt lat="47.51029" lon="7.46503">
        <ele>464</ele>
        <time>2021-06-18T17:00:27+02:00</time>
      </trkpt>
      <trkpt lat="47.50997" lon="7.46426">
        <ele>469</ele>
        <time>2021-06-18T17:00:32+02:00</time>
      </trkpt>
      <trkpt lat="47.51007" lon="7.46301">
        <ele>474</ele>
        <time>2021-06-18T17:00:37+02:00</time>
      </trkpt>
      <trkpt lat="47.50987" lon="7.46146">
        <ele>482</ele>
        <time>2021-06-18T17:00:42+02:00</time>
      </trkpt>
      <trkpt lat="47.51001" lon="7.45928">
        <ele>495</ele>
        <time>2021-06-18T17:00:47+02:00</time>
      </trkpt>
      <trkpt lat="47.51024" lon="7.45817">
        <ele>494</ele>
        <time>2021-06-18T17:00:52+02:00</time>
      </trkpt>
      <trkpt lat="47.51009" lon="7.45789">
        <ele>499</ele>
        <time>2021-06-18T17:00:57+02:00</time>
      </trkpt>
      <trkpt lat="47.50982" lon="7.45718">
        <ele>507</ele>
        <time>2021-06-18T17:01:02+02:00</time>
      </trkpt>
      <trkpt lat="47.50963" lon="7.45655">
        <ele>516</ele>
        <time>2021-06-18T17:01:07+02:00</time>
      </trkpt>
      <trkpt lat="47.5093" lon="7.45546">
        <ele>528</ele>
        <time>2021-06-18T17:01:12+02:00</time>
      </trkpt>
      <trkpt lat="47.50943" lon="7.45423">
        <ele>531</ele>
        <time>2021-06-18T17:01:17+02:00</time>
      </trkpt>
      <trkpt lat="47.50925" lon="7.45302">
        <ele>536</ele>
        <time>2021-06-18T17:01:22+02:00</time>
      </trkpt>
      <trkpt lat="47.50941" lon="7.44838">
        <ele>521</ele>
        <time>2021-06-18T17:01:27+02:00</time>
      </trkpt>
      <trkpt lat="47.50967" lon="7.44747">
        <ele>527</ele>
        <time>2021-06-18T17:01:32+02:00</time>
      </trkpt>
      <trkpt lat="47.5098" lon="7.44549">
        <ele>525</ele>
        <time>2021-06-18T17:01:37+02:00</time>
      </trkpt>
      <trkpt lat="47.50979" lon="7.44276">
        <ele>522</ele>
        <time>2021-06-18T17:01:42+02:00</time>
      </trkpt>
      <trkpt lat="47.51008" lon="7.44103">
        <ele>528</ele>
        <time>2021-06-18T17:01:47+02:00</time>
      </trkpt>
      <trkpt lat="47.5101" lon="7.44056">
        <ele>527</ele>
        <time>2021-06-18T17:01:52+02:00</time>
      </trkpt>
      <trkpt lat="47.50995" lon="7.44005">
        <ele>525</ele>
        <time>2021-06-18T17:01:57+02:00</time>
      </trkpt>
      <trkpt lat="47.50968" lon="7.43909">
        <ele>520</ele>
        <time>2021-06-18T17:02:02+02:00</time>
      </trkpt>
      <trkpt lat="47.50808" lon="7.43648">
        <ele>518</ele>
        <time>2021-06-18T17:02:07+02:00</time>
      </trkpt>
      <trkpt lat="47.50726" lon="7.4358">
        <ele>518</ele>
        <time>2021-06-18T17:02:12+02:00</time>
      </trkpt>
      <trkpt lat="47.50629" lon="7.43531">
        <ele>517</ele>
        <time>2021-06-18T17:02:17+02:00</time>
      </trkpt>
      <trkpt lat="47.50564" lon="7.43458">
        <ele>512</ele>
        <time>2021-06-18T17:02:22+02:00</time>
      </trkpt>
      <trkpt lat="47.505" lon="7.43386">
        <ele>503</ele>
        <time>2021-06-18T17:02:27+02:00</time>
      </trkpt>
      <trkpt lat="47.50436" lon="7.43406">
        <ele>498</ele>
        <time>2021-06-18T17:02:32+02:00</time>
      </trkpt>
      <trkpt lat="47.50352" lon="7.43365">
        <ele>485</ele>
        <time>2021-06-18T17:02:37+02:00</time>
      </trkpt>
      <trkpt lat="47.50319" lon="7.43514">
        <ele>480</ele>
        <time>2021-06-18T17:02:42+02:00</time>
      </trkpt>
      <trkpt lat="47.50227" lon="7.43439">
        <ele>488</ele>
        <time>2021-06-18T17:02:47+02:00</time>
      </trkpt>
      <trkpt lat="47.50161" lon="7.43393">
        <ele>497</ele>
        <time>2021-06-18T17:02:52+02:00</time>
      </trkpt>
      <trkpt lat="47.50148" lon="7.43285">
        <ele>493</ele>
        <time>2021-06-18T17:02:57+02:00</time>
      </trkpt>
      <trkpt lat="47.50079" lon="7.43212">
        <ele>489</ele>
        <time>2021-06-18T17:03:02+02:00</time>
      </trkpt>
      <trkpt lat="47.49917" lon="7.42904">
        <ele>472</ele>
        <time>2021-06-18T17:03:07+02:00</time>
      </trkpt>
      <trkpt lat="47.49956" lon="7.42841">
        <ele>467</ele>
        <time>2021-06-18T17:03:12+02:00</time>
      </trkpt>
      <trkpt lat="47.4996" lon="7.42822">
        <ele>467</ele>
        <time>2021-06-18T17:03:17+02:00</time>
      </trkpt>
      <trkpt lat="47.49944" lon="7.42831">
        <ele>468</ele>
        <time>2021-06-18T17:03:22+02:00</time>
      </trkpt>
      <trkpt lat="47.49901" lon="7.42939">
        <ele>472</ele>
        <time>2021-06-18T17:03:27+02:00</time>
      </trkpt>
      <trkpt lat="47.49821" lon="7.42892">
        <ele>469</ele>
        <time>2021-06-18T17:03:32+02:00</time>
      </trkpt>
      <trkpt lat="47.49736" lon="7.43226">
        <ele>462</ele>
        <time>2021-06-18T17:03:37+02:00</time>
      </trkpt>
      <trkpt lat="47.49618" lon="7.43141">
        <ele>457</ele>
        <time>2021-06-18T17:03:42+02:00</time>
      </trkpt>
      <trkpt lat="47.49338" lon="7.42855">
        <ele>435</ele>
        <time>2021-06-18T17:03:47+02:00</time>
      </trkpt>
      <trkpt lat="47.49345" lon="7.42657">
        <ele>425</ele>
        <time>2021-06-18T17:03:52+02:00</time>
      </trkpt>
      <trkpt lat="47.49321" lon="7.42428">
        <ele>427</ele>
        <time>2021-06-18T17:03:57+02:00</time>
      </trkpt>
      <trkpt lat="47.4918" lon="7.41949">
        <ele>419</ele>
        <time>2021-06-18T17:04:02+02:00</time>
      </trkpt>
      <trkpt lat="47.49218" lon="7.41281">
        <ele>402</ele>
        <time>2021-06-18T17:04:07+02:00</time>
      </trkpt>
      <trkpt lat="47.49204" lon="7.4118">
        <ele>402</ele>
        <time>2021-06-18T17:04:12+02:00</time>
      </trkpt>
      <trkpt lat="47.49358" lon="7.40955">
        <ele>401</ele>
        <time>2021-06-18T17:04:17+02:00</time>
      </trkpt>
      <trkpt lat="47.4939" lon="7.40845">
        <ele>399</ele>
        <time>2021-06-18T17:04:22+02:00</time>
      </trkpt>
      <trkpt lat="47.49363" lon="7.40524">
        <ele>394</ele>
        <time>2021-06-18T17:04:27+02:00</time>
      </trkpt>
      <trkpt lat="47.49342" lon="7.40395">
        <ele>396</ele>
        <time>2021-06-18T17:04:32+02:00</time>
      </trkpt>
      <trkpt lat="47.49308" lon="7.40352">
        <ele>397</ele>
        <time>2021-06-18T17:04:37+02:00</time>
      </trkpt>
      <trkpt lat="47.49255" lon="7.40015">
        <ele>399</ele>
        <time>2021-06-18T17:04:42+02:00</time>
      </trkpt>
      <trkpt lat="47.49293" lon="7.39872">
        <ele>403</ele>
        <time>2021-06-18T17:04:47+02:00</time>
      </trkpt>
      <trkpt lat="47.49272" lon="7.3973">
        <ele>406</ele>
        <time>2021-06-18T17:04:52+02:00</time>
      </trkpt>
      <trkpt lat="47.49168" lon="7.39209">
        <ele>399</ele>
        <time>2021-06-18T17:04:57+02:00</time>
      </trkpt>
      <trkpt lat="47.49089" lon="7.38975">
        <ele>401</ele>
        <time>2021-06-18T17:05:02+02:00</time>
      </trkpt>
      <trkpt lat="47.48959" lon="7.38963">
        <ele>401</ele>
        <time>2021-06-18T17:05:07+02:00</time>
      </trkpt>
      <trkpt lat="47.48858" lon="7.38687">
        <ele>402</ele>
        <time>2021-06-18T17:05:12+02:00</time>
      </trkpt>
      <trkpt lat="47.48743" lon="7.38523">
        <ele>402</ele>
        <time>2021-06-18T17:05:17+02:00</time>
      </trkpt>
      <trkpt lat="47.487" lon="7.38461">
        <ele>403</ele>
        <time>2021-06-18T17:05:22+02:00</time>
      </trkpt>
      <trkpt lat="47.4864" lon="7.38419">
        <ele>404</ele>
        <time>2021-06-18T17:05:27+02:00</time>
      </trkpt>
      <trkpt lat="47.48481" lon="7.38332">
        <ele>406</ele>
        <time>2021-06-18T17:05:32+02:00</time>
      </trkpt>
      <trkpt lat="47.48399" lon="7.38251">
        <ele>411</ele>
        <time>2021-06-18T17:05:37+02:00</time>
      </trkpt>
      <trkpt lat="47.48404" lon="7.38202">
        <ele>411</ele>
        <time>2021-06-18T17:05:47+02:00</time>
      </trkpt>
      <trkpt lat="47.48418" lon="7.3814">
        <ele>413</ele>
        <time>2021-06-18T17:05:52+02:00</time>
      </trkpt>
      <trkpt lat="47.48505" lon="7.38102">
        <ele>413</ele>
        <time>2021-06-18T17:05:57+02:00</time>
      </trkpt>
      <trkpt lat="47.48557" lon="7.38053">
        <ele>416</ele>
        <time>2021-06-18T17:06:02+02:00</time>
      </trkpt>
      <trkpt lat="47.48647" lon="7.37936">
        <ele>415</ele>
        <time>2021-06-18T17:06:07+02:00</time>
      </trkpt>
      <trkpt lat="47.48566" lon="7.37931">
        <ele>424</ele>
        <time>2021-06-18T17:06:12+02:00</time>
      </trkpt>
      <trkpt lat="47.48513" lon="7.37906">
        <ele>429</ele>
        <time>2021-06-18T17:06:17+02:00</time>
      </trkpt>
      <trkpt lat="47.48433" lon="7.37932">
        <ele>436</ele>
        <time>2021-06-18T17:06:22+02:00</time>
      </trkpt>
      <trkpt lat="47.4836" lon="7.37908">
        <ele>440</ele>
        <time>2021-06-18T17:06:27+02:00</time>
      </trkpt>
      <trkpt lat="47.48288" lon="7.37858">
        <ele>448</ele>
        <time>2021-06-18T17:06:32+02:00</time>
      </trkpt>
      <trkpt lat="47.48143" lon="7.37625">
        <ele>467</ele>
        <time>2021-06-18T17:06:37+02:00</time>
      </trkpt>
      <trkpt lat="47.48087" lon="7.3757">
        <ele>473</ele>
        <time>2021-06-18T17:06:42+02:00</time>
      </trkpt>
      <trkpt lat="47.47975" lon="7.3743">
        <ele>470</ele>
        <time>2021-06-18T17:06:47+02:00</time>
      </trkpt>
      <trkpt lat="47.47913" lon="7.37321">
        <ele>465</ele>
        <time>2021-06-18T17:06:52+02:00</time>
      </trkpt>
      <trkpt lat="47.47854" lon="7.37076">
        <ele>447</ele>
        <time>2021-06-18T17:06:57+02:00</time>
      </trkpt>
      <trkpt lat="47.47893" lon="7.37193">
        <ele>458</ele>
        <time>2021-06-18T17:07:02+02:00</time>
      </trkpt>
      <trkpt lat="47.4793" lon="7.37173">
        <ele>467</ele>
        <time>2021-06-18T17:07:07+02:00</time>
      </trkpt>
      <trkpt lat="47.47975" lon="7.37177">
        <ele>476</ele>
        <time>2021-06-18T17:07:12+02:00</time>
      </trkpt>
      <trkpt lat="47.48018" lon="7.37065">
        <ele>482</ele>
        <time>2021-06-18T17:07:17+02:00</time>
      </trkpt>
      <trkpt lat="47.48017" lon="7.36995">
        <ele>482</ele>
        <time>2021-06-18T17:07:22+02:00</time>
      </trkpt>
      <trkpt lat="47.47994" lon="7.36874">
        <ele>479</ele>
        <time>2021-06-18T17:07:27+02:00</time>
      </trkpt>
      <trkpt lat="47.47996" lon="7.368">
        <ele>481</ele>
        <time>2021-06-18T17:07:32+02:00</time>
      </trkpt>
      <trkpt lat="47.47965" lon="7.36734">
        <ele>474</ele>
        <time>2021-06-18T17:07:37+02:00</time>
      </trkpt>
      <trkpt lat="47.47949" lon="7.36696">
        <ele>472</ele>
        <time>2021-06-18T17:07:42+02:00</time>
      </trkpt>
      <trkpt lat="47.47924" lon="7.3665">
        <ele>468</ele>
        <time>2021-06-18T17:07:47+02:00</time>
      </trkpt>
      <trkpt lat="47.47998" lon="7.36338">
        <ele>486</ele>
        <time>2021-06-18T17:07:52+02:00</time>
      </trkpt>
      <trkpt lat="47.48024" lon="7.36301">
        <ele>491</ele>
        <time>2021-06-18T17:07:57+02:00</time>
      </trkpt>
      <trkpt lat="47.48027" lon="7.36095">
        <ele>488</ele>
        <time>2021-06-18T17:08:02+02:00</time>
      </trkpt>
      <trkpt lat="47.48057" lon="7.36022">
        <ele>494</ele>
        <time>2021-06-18T17:08:07+02:00</time>
      </trkpt>
      <trkpt lat="47.48072" lon="7.35827">
        <ele>492</ele>
        <time>2021-06-18T17:08:12+02:00</time>
      </trkpt>
      <trkpt lat="47.48145" lon="7.35526">
        <ele>500</ele>
        <time>2021-06-18T17:08:17+02:00</time>
      </trkpt>
      <trkpt lat="47.48195" lon="7.35274">
        <ele>512</ele>
        <time>2021-06-18T17:08:22+02:00</time>
      </trkpt>
      <trkpt lat="47.4822" lon="7.35142">
        <ele>519</ele>
        <time>2021-06-18T17:08:27+02:00</time>
      </trkpt>
      <trkpt lat="47.48227" lon="7.35004">
        <ele>520</ele>
        <time>2021-06-18T17:08:32+02:00</time>
      </trkpt>
      <trkpt lat="47.48255" lon="7.34926">
        <ele>528</ele>
        <time>2021-06-18T17:08:37+02:00</time>
      </trkpt>
      <trkpt lat="47.48265" lon="7.34862">
        <ele>531</ele>
        <time>2021-06-18T17:08:42+02:00</time>
      </trkpt>
      <trkpt lat="47.48298" lon="7.34711">
        <ele>538</ele>
        <time>2021-06-18T17:08:47+02:00</time>
      </trkpt>
      <trkpt lat="47.48337" lon="7.34539">
        <ele>527</ele>
        <time>2021-06-18T17:08:52+02:00</time>
      </trkpt>
      <trkpt lat="47.48363" lon="7.34493">
        <ele>529</ele>
        <time>2021-06-18T17:08:57+02:00</time>
      </trkpt>
      <trkpt lat="47.48357" lon="7.34428">
        <ele>527</ele>
        <time>2021-06-18T17:09:02+02:00</time>
      </trkpt>
      <trkpt lat="47.48384" lon="7.34322">
        <ele>532</ele>
        <time>2021-06-18T17:09:07+02:00</time>
      </trkpt>
      <trkpt lat="47.48396" lon="7.3424">
        <ele>532</ele>
        <time>2021-06-18T17:09:12+02:00</time>
      </trkpt>
      <trkpt lat="47.48461" lon="7.34135">
        <ele>545</ele>
        <time>2021-06-18T17:09:17+02:00</time>
      </trkpt>
      <trkpt lat="47.48457" lon="7.34069">
        <ele>542</ele>
        <time>2021-06-18T17:09:22+02:00</time>
      </trkpt>
      <trkpt lat="47.48488" lon="7.33954">
        <ele>547</ele>
        <time>2021-06-18T17:09:27+02:00</time>
      </trkpt>
      <trkpt lat="47.48498" lon="7.33761">
        <ele>547</ele>
        <time>2021-06-18T17:09:32+02:00</time>
      </trkpt>
      <trkpt lat="47.48545" lon="7.33502">
        <ele>557</ele>
        <time>2021-06-18T17:09:37+02:00</time>
      </trkpt>
      <trkpt lat="47.48522" lon="7.33302">
        <ele>557</ele>
        <time>2021-06-18T17:09:42+02:00</time>
      </trkpt>
      <trkpt lat="47.48545" lon="7.3323">
        <ele>567</ele>
        <time>2021-06-18T17:09:47+02:00</time>
      </trkpt>
      <trkpt lat="47.48551" lon="7.3312">
        <ele>577</ele>
        <time>2021-06-18T17:09:52+02:00</time>
      </trkpt>
      <trkpt lat="47.48507" lon="7.32846">
        <ele>588</ele>
        <time>2021-06-18T17:09:57+02:00</time>
      </trkpt>
      <trkpt lat="47.48472" lon="7.32611">
        <ele>598</ele>
        <time>2021-06-18T17:10:02+02:00</time>
      </trkpt>
      <trkpt lat="47.48501" lon="7.32569">
        <ele>607</ele>
        <time>2021-06-18T17:10:07+02:00</time>
      </trkpt>
      <trkpt lat="47.48556" lon="7.32562">
        <ele>611</ele>
        <time>2021-06-18T17:10:12+02:00</time>
      </trkpt>
      <trkpt lat="47.48697" lon="7.32467">
        <ele>603</ele>
        <time>2021-06-18T17:10:17+02:00</time>
      </trkpt>
      <trkpt lat="47.48696" lon="7.32533">
        <ele>613</ele>
        <time>2021-06-18T17:10:22+02:00</time>
      </trkpt>
      <trkpt lat="47.48917" lon="7.32777">
        <ele>614</ele>
        <time>2021-06-18T17:10:27+02:00</time>
      </trkpt>
      <trkpt lat="47.49" lon="7.32819">
        <ele>608</ele>
        <time>2021-06-18T17:10:32+02:00</time>
      </trkpt>
      <trkpt lat="47.49053" lon="7.3291">
        <ele>615</ele>
        <time>2021-06-18T17:10:37+02:00</time>
      </trkpt>
      <trkpt lat="47.49139" lon="7.33022">
        <ele>612</ele>
        <time>2021-06-18T17:10:42+02:00</time>
      </trkpt>
      <trkpt lat="47.49273" lon="7.33243">
        <ele>592</ele>
        <time>2021-06-18T17:10:47+02:00</time>
      </trkpt>
      <trkpt lat="47.49327" lon="7.33401">
        <ele>578</ele>
        <time>2021-06-18T17:10:52+02:00</time>
      </trkpt>
      <trkpt lat="47.49381" lon="7.33541">
        <ele>562</ele>
        <time>2021-06-18T17:10:57+02:00</time>
      </trkpt>
      <trkpt lat="47.49432" lon="7.33555">
        <ele>567</ele>
        <time>2021-06-18T17:11:02+02:00</time>
      </trkpt>
      <trkpt lat="47.49525" lon="7.33464">
        <ele>587</ele>
        <time>2021-06-18T17:11:07+02:00</time>
      </trkpt>
      <trkpt lat="47.49525" lon="7.33392">
        <ele>599</ele>
        <time>2021-06-18T17:11:12+02:00</time>
      </trkpt>
      <trkpt lat="47.49528" lon="7.33336">
        <ele>602</ele>
        <time>2021-06-18T17:11:17+02:00</time>
      </trkpt>
      <trkpt lat="47.49528" lon="7.33318">
        <ele>602</ele>
        <time>2021-06-18T17:11:22+02:00</time>
      </trkpt>
      <trkpt lat="47.49494" lon="7.33464">
        <ele>592</ele>
        <time>2021-06-18T17:11:27+02:00</time>
      </trkpt>
      <trkpt lat="47.49461" lon="7.33298">
        <ele>610</ele>
        <time>2021-06-18T17:11:32+02:00</time>
      </trkpt>
      <trkpt lat="47.49432" lon="7.33136">
        <ele>615</ele>
        <time>2021-06-18T17:11:37+02:00</time>
      </trkpt>
      <trkpt lat="47.49399" lon="7.32967">
        <ele>626</ele>
        <time>2021-06-18T17:11:42+02:00</time>
      </trkpt>
      <trkpt lat="47.4936" lon="7.32817">
        <ele>634</ele>
        <time>2021-06-18T17:11:47+02:00</time>
      </trkpt>
      <trkpt lat="47.49336" lon="7.3275">
        <ele>634</ele>
        <time>2021-06-18T17:11:52+02:00</time>
      </trkpt>
      <trkpt lat="47.493" lon="7.32709">
        <ele>627</ele>
        <time>2021-06-18T17:11:57+02:00</time>
      </trkpt>
      <trkpt lat="47.49336" lon="7.32722">
        <ele>628</ele>
        <time>2021-06-18T17:12:02+02:00</time>
      </trkpt>
      <trkpt lat="47.49376" lon="7.32765">
        <ele>626</ele>
        <time>2021-06-18T17:12:07+02:00</time>
      </trkpt>
      <trkpt lat="47.49406" lon="7.32695">
        <ele>608</ele>
        <time>2021-06-18T17:12:12+02:00</time>
      </trkpt>
      <trkpt lat="47.49394" lon="7.32598">
        <ele>593</ele>
        <time>2021-06-18T17:12:17+02:00</time>
      </trkpt>
      <trkpt lat="47.49401" lon="7.32472">
        <ele>579</ele>
        <time>2021-06-18T17:12:22+02:00</time>
      </trkpt>
      <trkpt lat="47.49395" lon="7.32376">
        <ele>568</ele>
        <time>2021-06-18T17:12:27+02:00</time>
      </trkpt>
      <trkpt lat="47.49411" lon="7.32315">
        <ele>563</ele>
        <time>2021-06-18T17:12:32+02:00</time>
      </trkpt>
      <trkpt lat="47.49422" lon="7.32335">
        <ele>566</ele>
        <time>2021-06-18T17:12:37+02:00</time>
      </trkpt>
      <trkpt lat="47.49425" lon="7.32227">
        <ele>549</ele>
        <time>2021-06-18T17:12:42+02:00</time>
      </trkpt>
      <trkpt lat="47.49376" lon="7.32233">
        <ele>545</ele>
        <time>2021-06-18T17:12:47+02:00</time>
      </trkpt>
      <trkpt lat="47.49363" lon="7.32235">
        <ele>543</ele>
        <time>2021-06-18T17:12:52+02:00</time>
      </trkpt>
      <trkpt lat="47.4938" lon="7.32166">
        <ele>535</ele>
        <time>2021-06-18T17:12:57+02:00</time>
      </trkpt>
      <trkpt lat="47.49388" lon="7.3215">
        <ele>535</ele>
        <time>2021-06-18T17:13:02+02:00</time>
      </trkpt>
      <trkpt lat="47.49383" lon="7.32125">
        <ele>535</ele>
        <time>2021-06-18T17:13:07+02:00</time>
      </trkpt>
      <trkpt lat="47.49368" lon="7.3211">
        <ele>538</ele>
        <time>2021-06-18T17:13:12+02:00</time>
      </trkpt>
      <trkpt lat="47.49371" lon="7.32047">
        <ele>545</ele>
        <time>2021-06-18T17:13:17+02:00</time>
      </trkpt>
      <trkpt lat="47.49406" lon="7.31963">
        <ele>551</ele>
        <time>2021-06-18T17:13:22+02:00</time>
      </trkpt>
      <trkpt lat="47.49448" lon="7.31921">
        <ele>548</ele>
        <time>2021-06-18T17:13:27+02:00</time>
      </trkpt>
      <trkpt lat="47.49421" lon="7.31926">
        <ele>555</ele>
        <time>2021-06-18T17:13:32+02:00</time>
      </trkpt>
      <trkpt lat="47.49418" lon="7.319">
        <ele>563</ele>
        <time>2021-06-18T17:13:37+02:00</time>
      </trkpt>
      <trkpt lat="47.4946" lon="7.31822">
        <ele>562</ele>
        <time>2021-06-18T17:13:42+02:00</time>
      </trkpt>
      <trkpt lat="47.49457" lon="7.3176">
        <ele>567</ele>
        <time>2021-06-18T17:13:47+02:00</time>
      </trkpt>
      <trkpt lat="47.49461" lon="7.31747">
        <ele>566</ele>
        <time>2021-06-18T17:13:52+02:00</time>
      </trkpt>
      <trkpt lat="47.49452" lon="7.31735">
        <ele>567</ele>
        <time>2021-06-18T17:13:57+02:00</time>
      </trkpt>
      <trkpt lat="47.49409" lon="7.31811">
        <ele>579</ele>
        <time>2021-06-18T17:14:02+02:00</time>
      </trkpt>
      <trkpt lat="47.49385" lon="7.31866">
        <ele>576</ele>
        <time>2021-06-18T17:14:07+02:00</time>
      </trkpt>
      <trkpt lat="47.49343" lon="7.31903">
        <ele>582</ele>
        <time>2021-06-18T17:14:12+02:00</time>
      </trkpt>
      <trkpt lat="47.49327" lon="7.31938">
        <ele>578</ele>
        <time>2021-06-18T17:14:17+02:00</time>
      </trkpt>
      <trkpt lat="47.49337" lon="7.31889">
        <ele>584</ele>
        <time>2021-06-18T17:14:22+02:00</time>
      </trkpt>
      <trkpt lat="47.49326" lon="7.31882">
        <ele>582</ele>
        <time>2021-06-18T17:14:27+02:00</time>
      </trkpt>
      <trkpt lat="47.49342" lon="7.31849">
        <ele>584</ele>
        <time>2021-06-18T17:14:32+02:00</time>
      </trkpt>
      <trkpt lat="47.49359" lon="7.31796">
        <ele>577</ele>
        <time>2021-06-18T17:14:37+02:00</time>
      </trkpt>
      <trkpt lat="47.49373" lon="7.31816">
        <ele>580</ele>
        <time>2021-06-18T17:14:42+02:00</time>
      </trkpt>
      <trkpt lat="47.49403" lon="7.31755">
        <ele>576</ele>
        <time>2021-06-18T17:14:47+02:00</time>
      </trkpt>
      <trkpt lat="47.49397" lon="7.31726">
        <ele>568</ele>
        <time>2021-06-18T17:14:52+02:00</time>
      </trkpt>
      <trkpt lat="47.49364" lon="7.31739">
        <ele>566</ele>
        <time>2021-06-18T17:14:57+02:00</time>
      </trkpt>
      <trkpt lat="47.49294" lon="7.31788">
        <ele>559</ele>
        <time>2021-06-18T17:15:02+02:00</time>
      </trkpt>
      <trkpt lat="47.49233" lon="7.31908">
        <ele>551</ele>
        <time>2021-06-18T17:15:07+02:00</time>
      </trkpt>
      <trkpt lat="47.49231" lon="7.31847">
        <ele>546</ele>
        <time>2021-06-18T17:15:12+02:00</time>
      </trkpt>
      <trkpt lat="47.49247" lon="7.31782">
        <ele>542</ele>
        <time>2021-06-18T17:15:17+02:00</time>
      </trkpt>
      <trkpt lat="47.49263" lon="7.31724">
        <ele>538</ele>
        <time>2021-06-18T17:15:22+02:00</time>
      </trkpt>
      <trkpt lat="47.49301" lon="7.31679">
        <ele>537</ele>
        <time>2021-06-18T17:15:27+02:00</time>
      </trkpt>
      <trkpt lat="47.49349" lon="7.31612">
        <ele>526</ele>
        <time>2021-06-18T17:15:32+02:00</time>
      </trkpt>
      <trkpt lat="47.49411" lon="7.31532">
        <ele>513</ele>
        <time>2021-06-18T17:15:37+02:00</time>
      </trkpt>
      <trkpt lat="47.49432" lon="7.3146">
        <ele>502</ele>
        <time>2021-06-18T17:15:42+02:00</time>
      </trkpt>
      <trkpt lat="47.49426" lon="7.314">
        <ele>496</ele>
        <time>2021-06-18T17:15:47+02:00</time>
      </trkpt>
      <trkpt lat="47.49418" lon="7.31366">
        <ele>499</ele>
        <time>2021-06-18T17:15:52+02:00</time>
      </trkpt>
      <trkpt lat="47.49532" lon="7.31244">
        <ele>505</ele>
        <time>2021-06-18T17:15:57+02:00</time>
      </trkpt>
      <trkpt lat="47.49473" lon="7.31238">
        <ele>523</ele>
        <time>2021-06-18T17:16:02+02:00</time>
      </trkpt>
      <trkpt lat="47.49516" lon="7.31182">
        <ele>527</ele>
        <time>2021-06-18T17:16:07+02:00</time>
      </trkpt>
      <trkpt lat="47.49476" lon="7.31172">
        <ele>546</ele>
        <time>2021-06-18T17:16:12+02:00</time>
      </trkpt>
      <trkpt lat="47.49492" lon="7.31104">
        <ele>558</ele>
        <time>2021-06-18T17:16:17+02:00</time>
      </trkpt>
      <trkpt lat="47.49497" lon="7.30994">
        <ele>582</ele>
        <time>2021-06-18T17:16:22+02:00</time>
      </trkpt>
      <trkpt lat="47.49494" lon="7.30989">
        <ele>585</ele>
        <time>2021-06-18T17:16:27+02:00</time>
      </trkpt>
      <trkpt lat="47.49496" lon="7.3094">
        <ele>594</ele>
        <time>2021-06-18T17:16:32+02:00</time>
      </trkpt>
      <trkpt lat="47.49473" lon="7.30877">
        <ele>613</ele>
        <time>2021-06-18T17:16:37+02:00</time>
      </trkpt>
      <trkpt lat="47.49464" lon="7.30726">
        <ele>632</ele>
        <time>2021-06-18T17:16:42+02:00</time>
      </trkpt>
      <trkpt lat="47.49447" lon="7.308">
        <ele>632</ele>
        <time>2021-06-18T17:16:47+02:00</time>
      </trkpt>
      <trkpt lat="47.4941" lon="7.30813">
        <ele>642</ele>
        <time>2021-06-18T17:16:52+02:00</time>
      </trkpt>
      <trkpt lat="47.49416" lon="7.30686">
        <ele>650</ele>
        <time>2021-06-18T17:16:57+02:00</time>
      </trkpt>
      <trkpt lat="47.49396" lon="7.30551">
        <ele>654</ele>
        <time>2021-06-18T17:17:02+02:00</time>
      </trkpt>
      <trkpt lat="47.49376" lon="7.30419">
        <ele>663</ele>
        <time>2021-06-18T17:17:07+02:00</time>
      </trkpt>
      <trkpt lat="47.49361" lon="7.30277">
        <ele>668</ele>
        <time>2021-06-18T17:17:12+02:00</time>
      </trkpt>
      <trkpt lat="47.49361" lon="7.30184">
        <ele>657</ele>
        <time>2021-06-18T17:17:17+02:00</time>
      </trkpt>
      <trkpt lat="47.49361" lon="7.30277">
        <ele>668</ele>
        <time>2021-06-18T17:17:22+02:00</time>
      </trkpt>
      <trkpt lat="47.49264" lon="7.3026">
        <ele>668</ele>
        <time>2021-06-18T17:17:27+02:00</time>
      </trkpt>
      <trkpt lat="47.49254" lon="7.3024">
        <ele>667</ele>
        <time>2021-06-18T17:17:32+02:00</time>
      </trkpt>
      <trkpt lat="47.49195" lon="7.30231">
        <ele>665</ele>
        <time>2021-06-18T17:17:37+02:00</time>
      </trkpt>
      <trkpt lat="47.49157" lon="7.30137">
        <ele>663</ele>
        <time>2021-06-18T17:17:42+02:00</time>
      </trkpt>
      <trkpt lat="47.49116" lon="7.30032">
        <ele>658</ele>
        <time>2021-06-18T17:17:47+02:00</time>
      </trkpt>
      <trkpt lat="47.49028" lon="7.2986">
        <ele>651</ele>
        <time>2021-06-18T17:17:52+02:00</time>
      </trkpt>
      <trkpt lat="47.48984" lon="7.29823">
        <ele>646</ele>
        <time>2021-06-18T17:17:57+02:00</time>
      </trkpt>
      <trkpt lat="47.48921" lon="7.29817">
        <ele>636</ele>
        <time>2021-06-18T17:18:02+02:00</time>
      </trkpt>
      <trkpt lat="47.48936" lon="7.29785">
        <ele>636</ele>
        <time>2021-06-18T17:18:07+02:00</time>
      </trkpt>
      <trkpt lat="47.49004" lon="7.29706">
        <ele>636</ele>
        <time>2021-06-18T17:18:12+02:00</time>
      </trkpt>
      <trkpt lat="47.49033" lon="7.29626">
        <ele>628</ele>
        <time>2021-06-18T17:18:17+02:00</time>
      </trkpt>
      <trkpt lat="47.49004" lon="7.29579">
        <ele>624</ele>
        <time>2021-06-18T17:18:22+02:00</time>
      </trkpt>
      <trkpt lat="47.48949" lon="7.29494">
        <ele>620</ele>
        <time>2021-06-18T17:18:27+02:00</time>
      </trkpt>
      <trkpt lat="47.4889" lon="7.29402">
        <ele>612</ele>
        <time>2021-06-18T17:18:32+02:00</time>
      </trkpt>
      <trkpt lat="47.48875" lon="7.29321">
        <ele>617</ele>
        <time>2021-06-18T17:18:37+02:00</time>
      </trkpt>
      <trkpt lat="47.48809" lon="7.29288">
        <ele>612</ele>
        <time>2021-06-18T17:18:42+02:00</time>
      </trkpt>
      <trkpt lat="47.48798" lon="7.29227">
        <ele>612</ele>
        <time>2021-06-18T17:18:47+02:00</time>
      </trkpt>
      <trkpt lat="47.48805" lon="7.29055">
        <ele>614</ele>
        <time>2021-06-18T17:18:52+02:00</time>
      </trkpt>
      <trkpt lat="47.48719" lon="7.2906">
        <ele>608</ele>
        <time>2021-06-18T17:18:57+02:00</time>
      </trkpt>
      <trkpt lat="47.48626" lon="7.29045">
        <ele>602</ele>
        <time>2021-06-18T17:19:02+02:00</time>
      </trkpt>
      <trkpt lat="47.48567" lon="7.29039">
        <ele>599</ele>
        <time>2021-06-18T17:19:07+02:00</time>
      </trkpt>
      <trkpt lat="47.48499" lon="7.29053">
        <ele>593</ele>
        <time>2021-06-18T17:19:12+02:00</time>
      </trkpt>
      <trkpt lat="47.48449" lon="7.29075">
        <ele>593</ele>
        <time>2021-06-18T17:19:17+02:00</time>
      </trkpt>
      <trkpt lat="47.48368" lon="7.28855">
        <ele>587</ele>
        <time>2021-06-18T17:19:22+02:00</time>
      </trkpt>
      <trkpt lat="47.48413" lon="7.28799">
        <ele>589</ele>
        <time>2021-06-18T17:19:27+02:00</time>
      </trkpt>
      <trkpt lat="47.48403" lon="7.28672">
        <ele>588</ele>
        <time>2021-06-18T17:19:32+02:00</time>
      </trkpt>
      <trkpt lat="47.48314" lon="7.28431">
        <ele>576</ele>
        <time>2021-06-18T17:19:37+02:00</time>
      </trkpt>
      <trkpt lat="47.48235" lon="7.28264">
        <ele>572</ele>
        <time>2021-06-18T17:19:42+02:00</time>
      </trkpt>
      <trkpt lat="47.4808" lon="7.2821">
        <ele>583</ele>
        <time>2021-06-18T17:19:47+02:00</time>
      </trkpt>
      <trkpt lat="47.4802" lon="7.28131">
        <ele>587</ele>
        <time>2021-06-18T17:19:52+02:00</time>
      </trkpt>
      <trkpt lat="47.47921" lon="7.28075">
        <ele>584</ele>
        <time>2021-06-18T17:19:57+02:00</time>
      </trkpt>
      <trkpt lat="47.47846" lon="7.28048">
        <ele>582</ele>
        <time>2021-06-18T17:20:02+02:00</time>
      </trkpt>
      <trkpt lat="47.47724" lon="7.28063">
        <ele>582</ele>
        <time>2021-06-18T17:20:07+02:00</time>
      </trkpt>
      <trkpt lat="47.47592" lon="7.28019">
        <ele>578</ele>
        <time>2021-06-18T17:20:12+02:00</time>
      </trkpt>
      <trkpt lat="47.47611" lon="7.27847">
        <ele>578</ele>
        <time>2021-06-18T17:20:17+02:00</time>
      </trkpt>
      <trkpt lat="47.47575" lon="7.27678">
        <ele>570</ele>
        <time>2021-06-18T17:20:22+02:00</time>
      </trkpt>
      <trkpt lat="47.47545" lon="7.27661">
        <ele>569</ele>
        <time>2021-06-18T17:20:27+02:00</time>
      </trkpt>
      <trkpt lat="47.47449" lon="7.27686">
        <ele>569</ele>
        <time>2021-06-18T17:20:32+02:00</time>
      </trkpt>
      <trkpt lat="47.47381" lon="7.27586">
        <ele>565</ele>
        <time>2021-06-18T17:20:37+02:00</time>
      </trkpt>
      <trkpt lat="47.47286" lon="7.27584">
        <ele>559</ele>
        <time>2021-06-18T17:20:42+02:00</time>
      </trkpt>
      <trkpt lat="47.47217" lon="7.27525">
        <ele>553</ele>
        <time>2021-06-18T17:20:47+02:00</time>
      </trkpt>
      <trkpt lat="47.47197" lon="7.27453">
        <ele>552</ele>
        <time>2021-06-18T17:20:52+02:00</time>
      </trkpt>
      <trkpt lat="47.47159" lon="7.274">
        <ele>554</ele>
        <time>2021-06-18T17:20:57+02:00</time>
      </trkpt>
      <trkpt lat="47.47116" lon="7.27352">
        <ele>559</ele>
        <time>2021-06-18T17:21:02+02:00</time>
      </trkpt>
      <trkpt lat="47.47093" lon="7.27254">
        <ele>563</ele>
        <time>2021-06-18T17:21:07+02:00</time>
      </trkpt>
      <trkpt lat="47.47004" lon="7.27126">
        <ele>566</ele>
        <time>2021-06-18T17:21:12+02:00</time>
      </trkpt>
      <trkpt lat="47.46986" lon="7.27078">
        <ele>567</ele>
        <time>2021-06-18T17:21:17+02:00</time>
      </trkpt>
      <trkpt lat="47.46926" lon="7.26953">
        <ele>564</ele>
        <time>2021-06-18T17:21:22+02:00</time>
      </trkpt>
      <trkpt lat="47.46919" lon="7.26852">
        <ele>563</ele>
        <time>2021-06-18T17:21:27+02:00</time>
      </trkpt>
      <trkpt lat="47.46902" lon="7.26764">
        <ele>565</ele>
        <time>2021-06-18T17:21:32+02:00</time>
      </trkpt>
      <trkpt lat="47.46844" lon="7.26762">
        <ele>565</ele>
        <time>2021-06-18T17:21:37+02:00</time>
      </trkpt>
      <trkpt lat="47.46766" lon="7.26742">
        <ele>558</ele>
        <time>2021-06-18T17:21:42+02:00</time>
      </trkpt>
      <trkpt lat="47.46813" lon="7.26637">
        <ele>552</ele>
        <time>2021-06-18T17:21:47+02:00</time>
      </trkpt>
      <trkpt lat="47.46797" lon="7.26585">
        <ele>543</ele>
        <time>2021-06-18T17:21:52+02:00</time>
      </trkpt>
      <trkpt lat="47.46708" lon="7.26504">
        <ele>540</ele>
        <time>2021-06-18T17:21:57+02:00</time>
      </trkpt>
      <trkpt lat="47.46626" lon="7.26473">
        <ele>542</ele>
        <time>2021-06-18T17:22:02+02:00</time>
      </trkpt>
      <trkpt lat="47.4654" lon="7.26492">
        <ele>542</ele>
        <time>2021-06-18T17:22:07+02:00</time>
      </trkpt>
      <trkpt lat="47.46455" lon="7.26477">
        <ele>543</ele>
        <time>2021-06-18T17:22:12+02:00</time>
      </trkpt>
      <trkpt lat="47.46322" lon="7.26418">
        <ele>547</ele>
        <time>2021-06-18T17:22:17+02:00</time>
      </trkpt>
      <trkpt lat="47.46178" lon="7.26422">
        <ele>559</ele>
        <time>2021-06-18T17:22:22+02:00</time>
      </trkpt>
      <trkpt lat="47.46117" lon="7.26459">
        <ele>562</ele>
        <time>2021-06-18T17:22:27+02:00</time>
      </trkpt>
      <trkpt lat="47.46096" lon="7.26331">
        <ele>568</ele>
        <time>2021-06-18T17:22:32+02:00</time>
      </trkpt>
      <trkpt lat="47.4604" lon="7.26386">
        <ele>572</ele>
        <time>2021-06-18T17:22:37+02:00</time>
      </trkpt>
      <trkpt lat="47.45997" lon="7.26548">
        <ele>574</ele>
        <time>2021-06-18T17:22:42+02:00</time>
      </trkpt>
      <trkpt lat="47.45902" lon="7.26752">
        <ele>577</ele>
        <time>2021-06-18T17:22:47+02:00</time>
      </trkpt>
      <trkpt lat="47.45804" lon="7.26736">
        <ele>588</ele>
        <time>2021-06-18T17:22:52+02:00</time>
      </trkpt>
      <trkpt lat="47.45723" lon="7.26742">
        <ele>601</ele>
        <time>2021-06-18T17:22:57+02:00</time>
      </trkpt>
      <trkpt lat="47.45698" lon="7.2668">
        <ele>603</ele>
        <time>2021-06-18T17:23:02+02:00</time>
      </trkpt>
      <trkpt lat="47.45647" lon="7.26715">
        <ele>615</ele>
        <time>2021-06-18T17:23:07+02:00</time>
      </trkpt>
      <trkpt lat="47.45678" lon="7.26625">
        <ele>614</ele>
        <time>2021-06-18T17:23:12+02:00</time>
      </trkpt>
      <trkpt lat="47.45725" lon="7.26469">
        <ele>616</ele>
        <time>2021-06-18T17:23:17+02:00</time>
      </trkpt>
      <trkpt lat="47.45641" lon="7.26229">
        <ele>632</ele>
        <time>2021-06-18T17:23:22+02:00</time>
      </trkpt>
      <trkpt lat="47.45622" lon="7.26257">
        <ele>639</ele>
        <time>2021-06-18T17:23:27+02:00</time>
      </trkpt>
      <trkpt lat="47.45609" lon="7.26332">
        <ele>648</ele>
        <time>2021-06-18T17:23:32+02:00</time>
      </trkpt>
      <trkpt lat="47.45576" lon="7.26582">
        <ele>660</ele>
        <time>2021-06-18T17:23:37+02:00</time>
      </trkpt>
      <trkpt lat="47.45497" lon="7.26481">
        <ele>696</ele>
        <time>2021-06-18T17:23:42+02:00</time>
      </trkpt>
      <trkpt lat="47.45441" lon="7.26586">
        <ele>701</ele>
        <time>2021-06-18T17:23:47+02:00</time>
      </trkpt>
      <trkpt lat="47.45397" lon="7.26446">
        <ele>717</ele>
        <time>2021-06-18T17:23:52+02:00</time>
      </trkpt>
      <trkpt lat="47.45409" lon="7.26224">
        <ele>718</ele>
        <time>2021-06-18T17:23:57+02:00</time>
      </trkpt>
      <trkpt lat="47.45359" lon="7.25967">
        <ele>723</ele>
        <time>2021-06-18T17:24:02+02:00</time>
      </trkpt>
      <trkpt lat="47.45327" lon="7.25874">
        <ele>730</ele>
        <time>2021-06-18T17:24:07+02:00</time>
      </trkpt>
      <trkpt lat="47.45321" lon="7.25754">
        <ele>727</ele>
        <time>2021-06-18T17:24:12+02:00</time>
      </trkpt>
      <trkpt lat="47.45256" lon="7.25619">
        <ele>728</ele>
        <time>2021-06-18T17:24:17+02:00</time>
      </trkpt>
      <trkpt lat="47.4519" lon="7.25496">
        <ele>721</ele>
        <time>2021-06-18T17:24:22+02:00</time>
      </trkpt>
      <trkpt lat="47.45135" lon="7.25299">
        <ele>715</ele>
        <time>2021-06-18T17:24:27+02:00</time>
      </trkpt>
      <trkpt lat="47.45145" lon="7.25154">
        <ele>704</ele>
        <time>2021-06-18T17:24:32+02:00</time>
      </trkpt>
      <trkpt lat="47.4494" lon="7.25115">
        <ele>710</ele>
        <time>2021-06-18T17:24:37+02:00</time>
      </trkpt>
      <trkpt lat="47.44795" lon="7.25022">
        <ele>701</ele>
        <time>2021-06-18T17:24:42+02:00</time>
      </trkpt>
      <trkpt lat="47.4469" lon="7.24852">
        <ele>701</ele>
        <time>2021-06-18T17:24:47+02:00</time>
      </trkpt>
      <trkpt lat="47.4459" lon="7.24697">
        <ele>700</ele>
        <time>2021-06-18T17:24:52+02:00</time>
      </trkpt>
      <trkpt lat="47.44494" lon="7.24582">
        <ele>699</ele>
        <time>2021-06-18T17:24:57+02:00</time>
      </trkpt>
      <trkpt lat="47.44443" lon="7.24517">
        <ele>698</ele>
        <time>2021-06-18T17:25:02+02:00</time>
      </trkpt>
      <trkpt lat="47.44595" lon="7.24432">
        <ele>688</ele>
        <time>2021-06-18T17:25:07+02:00</time>
      </trkpt>
      <trkpt lat="47.44824" lon="7.24466">
        <ele>665</ele>
        <time>2021-06-18T17:25:12+02:00</time>
      </trkpt>
      <trkpt lat="47.44943" lon="7.24424">
        <ele>644</ele>
        <time>2021-06-18T17:25:17+02:00</time>
      </trkpt>
      <trkpt lat="47.45086" lon="7.24431">
        <ele>624</ele>
        <time>2021-06-18T17:25:22+02:00</time>
      </trkpt>
      <trkpt lat="47.45155" lon="7.2439">
        <ele>615</ele>
        <time>2021-06-18T17:25:27+02:00</time>
      </trkpt>
      <trkpt lat="47.4534" lon="7.24394">
        <ele>604</ele>
        <time>2021-06-18T17:25:32+02:00</time>
      </trkpt>
      <trkpt lat="47.45413" lon="7.24261">
        <ele>588</ele>
        <time>2021-06-18T17:25:37+02:00</time>
      </trkpt>
      <trkpt lat="47.45517" lon="7.24045">
        <ele>574</ele>
        <time>2021-06-18T17:25:42+02:00</time>
      </trkpt>
      <trkpt lat="47.45622" lon="7.23809">
        <ele>570</ele>
        <time>2021-06-18T17:25:47+02:00</time>
      </trkpt>
      <trkpt lat="47.45675" lon="7.23621">
        <ele>546</ele>
        <time>2021-06-18T17:25:52+02:00</time>
      </trkpt>
      <trkpt lat="47.45755" lon="7.23542">
        <ele>537</ele>
        <time>2021-06-18T17:25:57+02:00</time>
      </trkpt>
      <trkpt lat="47.45744" lon="7.23382">
        <ele>524</ele>
        <time>2021-06-18T17:26:02+02:00</time>
      </trkpt>
      <trkpt lat="47.45755" lon="7.23117">
        <ele>517</ele>
        <time>2021-06-18T17:26:07+02:00</time>
      </trkpt>
      <trkpt lat="47.45805" lon="7.23002">
        <ele>515</ele>
        <time>2021-06-18T17:26:12+02:00</time>
      </trkpt>
      <trkpt lat="47.45566" lon="7.22468">
        <ele>515</ele>
        <time>2021-06-18T17:26:17+02:00</time>
      </trkpt>
      <trkpt lat="47.45421" lon="7.22495">
        <ele>506</ele>
        <time>2021-06-18T17:26:22+02:00</time>
      </trkpt>
      <trkpt lat="47.45388" lon="7.22377">
        <ele>501</ele>
        <time>2021-06-18T17:26:27+02:00</time>
      </trkpt>
      <trkpt lat="47.45334" lon="7.22281">
        <ele>498</ele>
        <time>2021-06-18T17:26:32+02:00</time>
      </trkpt>
      <trkpt lat="47.45262" lon="7.22152">
        <ele>495</ele>
        <time>2021-06-18T17:26:37+02:00</time>
      </trkpt>
      <trkpt lat="47.45199" lon="7.22114">
        <ele>497</ele>
        <time>2021-06-18T17:26:42+02:00</time>
      </trkpt>
      <trkpt lat="47.45026" lon="7.22237">
        <ele>507</ele>
        <time>2021-06-18T17:26:47+02:00</time>
      </trkpt>
      <trkpt lat="47.44979" lon="7.21989">
        <ele>504</ele>
        <time>2021-06-18T17:26:52+02:00</time>
      </trkpt>
      <trkpt lat="47.44945" lon="7.21827">
        <ele>500</ele>
        <time>2021-06-18T17:26:57+02:00</time>
      </trkpt>
      <trkpt lat="47.4491" lon="7.21652">
        <ele>493</ele>
        <time>2021-06-18T17:27:02+02:00</time>
      </trkpt>
      <trkpt lat="47.44877" lon="7.21573">
        <ele>494</ele>
        <time>2021-06-18T17:27:07+02:00</time>
      </trkpt>
      <trkpt lat="47.44842" lon="7.21563">
        <ele>497</ele>
        <time>2021-06-18T17:27:12+02:00</time>
      </trkpt>
      <trkpt lat="47.44785" lon="7.21769">
        <ele>521</ele>
        <time>2021-06-18T17:27:17+02:00</time>
      </trkpt>
      <trkpt lat="47.44686" lon="7.21618">
        <ele>535</ele>
        <time>2021-06-18T17:27:22+02:00</time>
      </trkpt>
      <trkpt lat="47.44698" lon="7.21772">
        <ele>547</ele>
        <time>2021-06-18T17:27:27+02:00</time>
      </trkpt>
      <trkpt lat="47.44672" lon="7.21961">
        <ele>550</ele>
        <time>2021-06-18T17:27:32+02:00</time>
      </trkpt>
      <trkpt lat="47.44622" lon="7.21883">
        <ele>546</ele>
        <time>2021-06-18T17:27:37+02:00</time>
      </trkpt>
      <trkpt lat="47.44572" lon="7.2168">
        <ele>549</ele>
        <time>2021-06-18T17:27:42+02:00</time>
      </trkpt>
      <trkpt lat="47.44513" lon="7.21475">
        <ele>533</ele>
        <time>2021-06-18T17:27:47+02:00</time>
      </trkpt>
      <trkpt lat="47.44513" lon="7.21355">
        <ele>528</ele>
        <time>2021-06-18T17:27:52+02:00</time>
      </trkpt>
      <trkpt lat="47.44573" lon="7.21321">
        <ele>533</ele>
        <time>2021-06-18T17:27:57+02:00</time>
      </trkpt>
      <trkpt lat="47.44607" lon="7.21371">
        <ele>535</ele>
        <time>2021-06-18T17:28:02+02:00</time>
      </trkpt>
      <trkpt lat="47.44617" lon="7.21458">
        <ele>540</ele>
        <time>2021-06-18T17:28:07+02:00</time>
      </trkpt>
      <trkpt lat="47.44574" lon="7.21507">
        <ele>548</ele>
        <time>2021-06-18T17:28:12+02:00</time>
      </trkpt>
      <trkpt lat="47.44575" lon="7.21594">
        <ele>550</ele>
        <time>2021-06-18T17:28:17+02:00</time>
      </trkpt>
      <trkpt lat="47.44648" lon="7.21799">
        <ele>553</ele>
        <time>2021-06-18T17:28:22+02:00</time>
      </trkpt>
      <trkpt lat="47.44681" lon="7.21869">
        <ele>550</ele>
        <time>2021-06-18T17:28:27+02:00</time>
      </trkpt>
      <trkpt lat="47.44665" lon="7.21927">
        <ele>551</ele>
        <time>2021-06-18T17:28:32+02:00</time>
      </trkpt>
      <trkpt lat="47.44616" lon="7.21873">
        <ele>546</ele>
        <time>2021-06-18T17:28:37+02:00</time>
      </trkpt>
      <trkpt lat="47.44568" lon="7.21875">
        <ele>541</ele>
        <time>2021-06-18T17:28:42+02:00</time>
      </trkpt>
      <trkpt lat="47.44525" lon="7.21835">
        <ele>539</ele>
        <time>2021-06-18T17:28:47+02:00</time>
      </trkpt>
      <trkpt lat="47.44474" lon="7.2171">
        <ele>536</ele>
        <time>2021-06-18T17:28:52+02:00</time>
      </trkpt>
      <trkpt lat="47.44438" lon="7.21531">
        <ele>528</ele>
        <time>2021-06-18T17:28:57+02:00</time>
      </trkpt>
      <trkpt lat="47.44417" lon="7.21496">
        <ele>525</ele>
        <time>2021-06-18T17:29:02+02:00</time>
      </trkpt>
      <trkpt lat="47.44377" lon="7.21486">
        <ele>526</ele>
        <time>2021-06-18T17:29:07+02:00</time>
      </trkpt>
      <trkpt lat="47.44404" lon="7.21648">
        <ele>538</ele>
        <time>2021-06-18T17:29:12+02:00</time>
      </trkpt>
      <trkpt lat="47.44415" lon="7.22127">
        <ele>571</ele>
        <time>2021-06-18T17:29:17+02:00</time>
      </trkpt>
      <trkpt lat="47.44397" lon="7.22138">
        <ele>577</ele>
        <time>2021-06-18T17:29:22+02:00</time>
      </trkpt>
      <trkpt lat="47.44316" lon="7.22031">
        <ele>590</ele>
        <time>2021-06-18T17:29:27+02:00</time>
      </trkpt>
      <trkpt lat="47.44247" lon="7.21949">
        <ele>595</ele>
        <time>2021-06-18T17:29:32+02:00</time>
      </trkpt>
      <trkpt lat="47.44156" lon="7.21917">
        <ele>607</ele>
        <time>2021-06-18T17:29:37+02:00</time>
      </trkpt>
      <trkpt lat="47.44114" lon="7.21916">
        <ele>613</ele>
        <time>2021-06-18T17:29:42+02:00</time>
      </trkpt>
      <trkpt lat="47.43984" lon="7.21719">
        <ele>625</ele>
        <time>2021-06-18T17:29:47+02:00</time>
      </trkpt>
      <trkpt lat="47.44013" lon="7.21831">
        <ele>626</ele>
        <time>2021-06-18T17:29:52+02:00</time>
      </trkpt>
      <trkpt lat="47.44081" lon="7.2205">
        <ele>633</ele>
        <time>2021-06-18T17:29:57+02:00</time>
      </trkpt>
      <trkpt lat="47.44066" lon="7.22148">
        <ele>651</ele>
        <time>2021-06-18T17:30:02+02:00</time>
      </trkpt>
      <trkpt lat="47.44102" lon="7.22354">
        <ele>681</ele>
        <time>2021-06-18T17:30:07+02:00</time>
      </trkpt>
      <trkpt lat="47.44153" lon="7.22521">
        <ele>701</ele>
        <time>2021-06-18T17:30:12+02:00</time>
      </trkpt>
      <trkpt lat="47.4419" lon="7.22554">
        <ele>695</ele>
        <time>2021-06-18T17:30:17+02:00</time>
      </trkpt>
      <trkpt lat="47.44176" lon="7.2262">
        <ele>702</ele>
        <time>2021-06-18T17:30:22+02:00</time>
      </trkpt>
      <trkpt lat="47.4408" lon="7.2276">
        <ele>706</ele>
        <time>2021-06-18T17:30:27+02:00</time>
      </trkpt>
      <trkpt lat="47.44044" lon="7.2287">
        <ele>709</ele>
        <time>2021-06-18T17:30:32+02:00</time>
      </trkpt>
      <trkpt lat="47.44007" lon="7.2289">
        <ele>709</ele>
        <time>2021-06-18T17:30:37+02:00</time>
      </trkpt>
      <trkpt lat="47.44001" lon="7.22912">
        <ele>710</ele>
        <time>2021-06-18T17:30:42+02:00</time>
      </trkpt>
      <trkpt lat="47.43983" lon="7.22917">
        <ele>708</ele>
        <time>2021-06-18T17:30:47+02:00</time>
      </trkpt>
      <trkpt lat="47.43927" lon="7.23118">
        <ele>709</ele>
        <time>2021-06-18T17:30:52+02:00</time>
      </trkpt>
      <trkpt lat="47.43882" lon="7.2323">
        <ele>715</ele>
        <time>2021-06-18T17:30:57+02:00</time>
      </trkpt>
      <trkpt lat="47.43788" lon="7.2322">
        <ele>711</ele>
        <time>2021-06-18T17:31:02+02:00</time>
      </trkpt>
      <trkpt lat="47.43763" lon="7.23374">
        <ele>707</ele>
        <time>2021-06-18T17:31:07+02:00</time>
      </trkpt>
      <trkpt lat="47.43735" lon="7.23509">
        <ele>703</ele>
        <time>2021-06-18T17:31:12+02:00</time>
      </trkpt>
      <trkpt lat="47.43675" lon="7.2359">
        <ele>717</ele>
        <time>2021-06-18T17:31:17+02:00</time>
      </trkpt>
      <trkpt lat="47.43474" lon="7.23767">
        <ele>746</ele>
        <time>2021-06-18T17:31:22+02:00</time>
      </trkpt>
      <trkpt lat="47.43336" lon="7.23897">
        <ele>747</ele>
        <time>2021-06-18T17:31:27+02:00</time>
      </trkpt>
      <trkpt lat="47.43058" lon="7.23752">
        <ele>735</ele>
        <time>2021-06-18T17:31:32+02:00</time>
      </trkpt>
      <trkpt lat="47.42841" lon="7.23928">
        <ele>699</ele>
        <time>2021-06-18T17:31:37+02:00</time>
      </trkpt>
      <trkpt lat="47.42774" lon="7.24387">
        <ele>656</ele>
        <time>2021-06-18T17:31:42+02:00</time>
      </trkpt>
      <trkpt lat="47.42665" lon="7.24566">
        <ele>644</ele>
        <time>2021-06-18T17:31:47+02:00</time>
      </trkpt>
      <trkpt lat="47.42568" lon="7.2457">
        <ele>646</ele>
        <time>2021-06-18T17:31:52+02:00</time>
      </trkpt>
      <trkpt lat="47.42495" lon="7.2455">
        <ele>657</ele>
        <time>2021-06-18T17:31:57+02:00</time>
      </trkpt>
      <trkpt lat="47.42383" lon="7.2458">
        <ele>648</ele>
        <time>2021-06-18T17:32:02+02:00</time>
      </trkpt>
      <trkpt lat="47.42301" lon="7.24659">
        <ele>632</ele>
        <time>2021-06-18T17:32:07+02:00</time>
      </trkpt>
      <trkpt lat="47.42306" lon="7.24696">
        <ele>630</ele>
        <time>2021-06-18T17:32:12+02:00</time>
      </trkpt>
      <trkpt lat="47.42333" lon="7.24751">
        <ele>635</ele>
        <time>2021-06-18T17:32:17+02:00</time>
      </trkpt>
      <trkpt lat="47.42329" lon="7.24784">
        <ele>630</ele>
        <time>2021-06-18T17:32:22+02:00</time>
      </trkpt>
      <trkpt lat="47.4227" lon="7.24745">
        <ele>617</ele>
        <time>2021-06-18T17:32:27+02:00</time>
      </trkpt>
      <trkpt lat="47.4224" lon="7.24663">
        <ele>615</ele>
        <time>2021-06-18T17:32:32+02:00</time>
      </trkpt>
      <trkpt lat="47.42168" lon="7.2466">
        <ele>599</ele>
        <time>2021-06-18T17:32:37+02:00</time>
      </trkpt>
      <trkpt lat="47.42241" lon="7.2469">
        <ele>613</ele>
        <time>2021-06-18T17:32:42+02:00</time>
      </trkpt>
      <trkpt lat="47.4227" lon="7.24745">
        <ele>617</ele>
        <time>2021-06-18T17:32:47+02:00</time>
      </trkpt>
      <trkpt lat="47.42329" lon="7.24784">
        <ele>630</ele>
        <time>2021-06-18T17:32:52+02:00</time>
      </trkpt>
      <trkpt lat="47.42366" lon="7.24821">
        <ele>639</ele>
        <time>2021-06-18T17:32:57+02:00</time>
      </trkpt>
      <trkpt lat="47.42381" lon="7.24888">
        <ele>641</ele>
        <time>2021-06-18T17:33:02+02:00</time>
      </trkpt>
      <trkpt lat="47.42424" lon="7.25039">
        <ele>649</ele>
        <time>2021-06-18T17:33:07+02:00</time>
      </trkpt>
      <trkpt lat="47.4245" lon="7.25077">
        <ele>654</ele>
        <time>2021-06-18T17:33:12+02:00</time>
      </trkpt>
      <trkpt lat="47.42467" lon="7.25358">
        <ele>638</ele>
        <time>2021-06-18T17:33:17+02:00</time>
      </trkpt>
      <trkpt lat="47.42519" lon="7.25469">
        <ele>637</ele>
        <time>2021-06-18T17:33:22+02:00</time>
      </trkpt>
      <trkpt lat="47.42538" lon="7.25547">
        <ele>634</ele>
        <time>2021-06-18T17:33:27+02:00</time>
      </trkpt>
      <trkpt lat="47.42582" lon="7.25774">
        <ele>626</ele>
        <time>2021-06-18T17:33:32+02:00</time>
      </trkpt>
      <trkpt lat="47.42631" lon="7.25957">
        <ele>628</ele>
        <time>2021-06-18T17:33:37+02:00</time>
      </trkpt>
      <trkpt lat="47.42651" lon="7.26062">
        <ele>626</ele>
        <time>2021-06-18T17:33:42+02:00</time>
      </trkpt>
      <trkpt lat="47.42668" lon="7.26094">
        <ele>630</ele>
        <time>2021-06-18T17:33:47+02:00</time>
      </trkpt>
      <trkpt lat="47.42661" lon="7.26037">
        <ele>635</ele>
        <time>2021-06-18T17:33:52+02:00</time>
      </trkpt>
      <trkpt lat="47.42685" lon="7.26072">
        <ele>640</ele>
        <time>2021-06-18T17:33:57+02:00</time>
      </trkpt>
      <trkpt lat="47.42686" lon="7.26032">
        <ele>645</ele>
        <time>2021-06-18T17:34:02+02:00</time>
      </trkpt>
      <trkpt lat="47.42707" lon="7.26081">
        <ele>649</ele>
        <time>2021-06-18T17:34:07+02:00</time>
      </trkpt>
      <trkpt lat="47.42707" lon="7.26014">
        <ele>655</ele>
        <time>2021-06-18T17:34:12+02:00</time>
      </trkpt>
      <trkpt lat="47.42784" lon="7.26074">
        <ele>672</ele>
        <time>2021-06-18T17:34:17+02:00</time>
      </trkpt>
      <trkpt lat="47.42829" lon="7.26128">
        <ele>673</ele>
        <time>2021-06-18T17:34:22+02:00</time>
      </trkpt>
      <trkpt lat="47.42853" lon="7.26147">
        <ele>669</ele>
        <time>2021-06-18T17:34:27+02:00</time>
      </trkpt>
      <trkpt lat="47.42873" lon="7.26089">
        <ele>676</ele>
        <time>2021-06-18T17:34:32+02:00</time>
      </trkpt>
      <trkpt lat="47.42921" lon="7.26021">
        <ele>677</ele>
        <time>2021-06-18T17:34:37+02:00</time>
      </trkpt>
      <trkpt lat="47.43002" lon="7.26018">
        <ele>677</ele>
        <time>2021-06-18T17:34:42+02:00</time>
      </trkpt>
      <trkpt lat="47.43098" lon="7.2605">
        <ele>667</ele>
        <time>2021-06-18T17:34:47+02:00</time>
      </trkpt>
      <trkpt lat="47.43134" lon="7.26044">
        <ele>668</ele>
        <time>2021-06-18T17:34:52+02:00</time>
      </trkpt>
      <trkpt lat="47.43173" lon="7.26031">
        <ele>671</ele>
        <time>2021-06-18T17:34:57+02:00</time>
      </trkpt>
      <trkpt lat="47.43266" lon="7.26072">
        <ele>663</ele>
        <time>2021-06-18T17:35:02+02:00</time>
      </trkpt>
      <trkpt lat="47.43337" lon="7.26159">
        <ele>659</ele>
        <time>2021-06-18T17:35:07+02:00</time>
      </trkpt>
      <trkpt lat="47.43262" lon="7.26158">
        <ele>648</ele>
        <time>2021-06-18T17:35:12+02:00</time>
      </trkpt>
      <trkpt lat="47.43176" lon="7.2618">
        <ele>641</ele>
        <time>2021-06-18T17:35:17+02:00</time>
      </trkpt>
      <trkpt lat="47.43047" lon="7.26281">
        <ele>643</ele>
        <time>2021-06-18T17:35:22+02:00</time>
      </trkpt>
      <trkpt lat="47.42985" lon="7.26369">
        <ele>647</ele>
        <time>2021-06-18T17:35:27+02:00</time>
      </trkpt>
      <trkpt lat="47.4297" lon="7.26457">
        <ele>650</ele>
        <time>2021-06-18T17:35:32+02:00</time>
      </trkpt>
      <trkpt lat="47.42986" lon="7.26518">
        <ele>658</ele>
        <time>2021-06-18T17:35:37+02:00</time>
      </trkpt>
      <trkpt lat="47.43052" lon="7.26604">
        <ele>666</ele>
        <time>2021-06-18T17:35:42+02:00</time>
      </trkpt>
      <trkpt lat="47.43115" lon="7.26656">
        <ele>667</ele>
        <time>2021-06-18T17:35:47+02:00</time>
      </trkpt>
      <trkpt lat="47.43234" lon="7.26677">
        <ele>670</ele>
        <time>2021-06-18T17:35:52+02:00</time>
      </trkpt>
      <trkpt lat="47.43323" lon="7.26586">
        <ele>675</ele>
        <time>2021-06-18T17:35:57+02:00</time>
      </trkpt>
      <trkpt lat="47.4337" lon="7.26577">
        <ele>678</ele>
        <time>2021-06-18T17:36:02+02:00</time>
      </trkpt>
      <trkpt lat="47.4337" lon="7.26576">
        <ele>678</ele>
        <time>2021-06-18T17:36:07+02:00</time>
      </trkpt>
      <trkpt lat="47.4341" lon="7.266">
        <ele>679</ele>
        <time>2021-06-18T17:36:12+02:00</time>
      </trkpt>
      <trkpt lat="47.43437" lon="7.26578">
        <ele>679</ele>
        <time>2021-06-18T17:36:17+02:00</time>
      </trkpt>
      <trkpt lat="47.43469" lon="7.26574">
        <ele>677</ele>
        <time>2021-06-18T17:36:22+02:00</time>
      </trkpt>
      <trkpt lat="47.43453" lon="7.26472">
        <ele>680</ele>
        <time>2021-06-18T17:36:27+02:00</time>
      </trkpt>
      <trkpt lat="47.43575" lon="7.2647">
        <ele>675</ele>
        <time>2021-06-18T17:36:32+02:00</time>
      </trkpt>
      <trkpt lat="47.43682" lon="7.26553">
        <ele>681</ele>
        <time>2021-06-18T17:36:37+02:00</time>
      </trkpt>
      <trkpt lat="47.43801" lon="7.26658">
        <ele>688</ele>
        <time>2021-06-18T17:36:42+02:00</time>
      </trkpt>
      <trkpt lat="47.43857" lon="7.26699">
        <ele>691</ele>
        <time>2021-06-18T17:36:47+02:00</time>
      </trkpt>
      <trkpt lat="47.43866" lon="7.26739">
        <ele>691</ele>
        <time>2021-06-18T17:36:52+02:00</time>
      </trkpt>
      <trkpt lat="47.43918" lon="7.26737">
        <ele>696</ele>
        <time>2021-06-18T17:36:57+02:00</time>
      </trkpt>
      <trkpt lat="47.44369" lon="7.26759">
        <ele>692</ele>
        <time>2021-06-18T17:37:02+02:00</time>
      </trkpt>
      <trkpt lat="47.44407" lon="7.26765">
        <ele>694</ele>
        <time>2021-06-18T17:37:07+02:00</time>
      </trkpt>
      <trkpt lat="47.44512" lon="7.26787">
        <ele>703</ele>
        <time>2021-06-18T17:37:12+02:00</time>
      </trkpt>
      <trkpt lat="47.44846" lon="7.26743">
        <ele>725</ele>
        <time>2021-06-18T17:37:17+02:00</time>
      </trkpt>
      <trkpt lat="47.44887" lon="7.2668">
        <ele>721</ele>
        <time>2021-06-18T17:37:22+02:00</time>
      </trkpt>
      <trkpt lat="47.44941" lon="7.26675">
        <ele>724</ele>
        <time>2021-06-18T17:37:27+02:00</time>
      </trkpt>
      <trkpt lat="47.4501" lon="7.26738">
        <ele>727</ele>
        <time>2021-06-18T17:37:32+02:00</time>
      </trkpt>
      <trkpt lat="47.44913" lon="7.26752">
        <ele>732</ele>
        <time>2021-06-18T17:37:37+02:00</time>
      </trkpt>
      <trkpt lat="47.44887" lon="7.2689">
        <ele>750</ele>
        <time>2021-06-18T17:37:42+02:00</time>
      </trkpt>
      <trkpt lat="47.44869" lon="7.26931">
        <ele>755</ele>
        <time>2021-06-18T17:37:47+02:00</time>
      </trkpt>
      <trkpt lat="47.44853" lon="7.27089">
        <ele>768</ele>
        <time>2021-06-18T17:37:52+02:00</time>
      </trkpt>
      <trkpt lat="47.44918" lon="7.27308">
        <ele>786</ele>
        <time>2021-06-18T17:37:57+02:00</time>
      </trkpt>
      <trkpt lat="47.44935" lon="7.27668">
        <ele>790</ele>
        <time>2021-06-18T17:38:02+02:00</time>
      </trkpt>
      <trkpt lat="47.44913" lon="7.27802">
        <ele>776</ele>
        <time>2021-06-18T17:38:07+02:00</time>
      </trkpt>
      <trkpt lat="47.44917" lon="7.27965">
        <ele>767</ele>
        <time>2021-06-18T17:38:12+02:00</time>
      </trkpt>
      <trkpt lat="47.44936" lon="7.28053">
        <ele>770</ele>
        <time>2021-06-18T17:38:17+02:00</time>
      </trkpt>
      <trkpt lat="47.44991" lon="7.28676">
        <ele>761</ele>
        <time>2021-06-18T17:38:22+02:00</time>
      </trkpt>
      <trkpt lat="47.45029" lon="7.29301">
        <ele>750</ele>
        <time>2021-06-18T17:38:27+02:00</time>
      </trkpt>
      <trkpt lat="47.45097" lon="7.29666">
        <ele>751</ele>
        <time>2021-06-18T17:38:32+02:00</time>
      </trkpt>
      <trkpt lat="47.45144" lon="7.29787">
        <ele>753</ele>
        <time>2021-06-18T17:38:37+02:00</time>
      </trkpt>
      <trkpt lat="47.4529" lon="7.30093">
        <ele>759</ele>
        <time>2021-06-18T17:38:42+02:00</time>
      </trkpt>
      <trkpt lat="47.45332" lon="7.30279">
        <ele>753</ele>
        <time>2021-06-18T17:38:47+02:00</time>
      </trkpt>
      <trkpt lat="47.45355" lon="7.30481">
        <ele>740</ele>
        <time>2021-06-18T17:38:52+02:00</time>
      </trkpt>
      <trkpt lat="47.45373" lon="7.30539">
        <ele>731</ele>
        <time>2021-06-18T17:38:57+02:00</time>
      </trkpt>
      <trkpt lat="47.45349" lon="7.30576">
        <ele>731</ele>
        <time>2021-06-18T17:39:02+02:00</time>
      </trkpt>
      <trkpt lat="47.45322" lon="7.30561">
        <ele>737</ele>
        <time>2021-06-18T17:39:07+02:00</time>
      </trkpt>
      <trkpt lat="47.45256" lon="7.30581">
        <ele>746</ele>
        <time>2021-06-18T17:39:12+02:00</time>
      </trkpt>
      <trkpt lat="47.45216" lon="7.30657">
        <ele>752</ele>
        <time>2021-06-18T17:39:17+02:00</time>
      </trkpt>
      <trkpt lat="47.45219" lon="7.30703">
        <ele>754</ele>
        <time>2021-06-18T17:39:22+02:00</time>
      </trkpt>
      <trkpt lat="47.45197" lon="7.30711">
        <ele>757</ele>
        <time>2021-06-18T17:39:27+02:00</time>
      </trkpt>
      <trkpt lat="47.45198" lon="7.30771">
        <ele>760</ele>
        <time>2021-06-18T17:39:32+02:00</time>
      </trkpt>
      <trkpt lat="47.45228" lon="7.30882">
        <ele>763</ele>
        <time>2021-06-18T17:39:37+02:00</time>
      </trkpt>
      <trkpt lat="47.45246" lon="7.30976">
        <ele>770</ele>
        <time>2021-06-18T17:39:42+02:00</time>
      </trkpt>
      <trkpt lat="47.45274" lon="7.31062">
        <ele>772</ele>
        <time>2021-06-18T17:39:47+02:00</time>
      </trkpt>
      <trkpt lat="47.45286" lon="7.31137">
        <ele>776</ele>
        <time>2021-06-18T17:39:52+02:00</time>
      </trkpt>
      <trkpt lat="47.45333" lon="7.31245">
        <ele>784</ele>
        <time>2021-06-18T17:39:57+02:00</time>
      </trkpt>
      <trkpt lat="47.45369" lon="7.31429">
        <ele>785</ele>
        <time>2021-06-18T17:40:02+02:00</time>
      </trkpt>
      <trkpt lat="47.45421" lon="7.31574">
        <ele>791</ele>
        <time>2021-06-18T17:40:07+02:00</time>
      </trkpt>
      <trkpt lat="47.45457" lon="7.31767">
        <ele>786</ele>
        <time>2021-06-18T17:40:12+02:00</time>
      </trkpt>
      <trkpt lat="47.45444" lon="7.31904">
        <ele>779</ele>
        <time>2021-06-18T17:40:17+02:00</time>
      </trkpt>
      <trkpt lat="47.45426" lon="7.31993">
        <ele>778</ele>
        <time>2021-06-18T17:40:22+02:00</time>
      </trkpt>
      <trkpt lat="47.45407" lon="7.32041">
        <ele>776</ele>
        <time>2021-06-18T17:40:27+02:00</time>
      </trkpt>
      <trkpt lat="47.45368" lon="7.32235">
        <ele>764</ele>
        <time>2021-06-18T17:40:32+02:00</time>
      </trkpt>
      <trkpt lat="47.45341" lon="7.32304">
        <ele>772</ele>
        <time>2021-06-18T17:40:37+02:00</time>
      </trkpt>
      <trkpt lat="47.45346" lon="7.3232">
        <ele>770</ele>
        <time>2021-06-18T17:40:42+02:00</time>
      </trkpt>
      <trkpt lat="47.45317" lon="7.32458">
        <ele>769</ele>
        <time>2021-06-18T17:40:47+02:00</time>
      </trkpt>
      <trkpt lat="47.45283" lon="7.32488">
        <ele>770</ele>
        <time>2021-06-18T17:40:52+02:00</time>
      </trkpt>
      <trkpt lat="47.45259" lon="7.32536">
        <ele>771</ele>
        <time>2021-06-18T17:40:57+02:00</time>
      </trkpt>
      <trkpt lat="47.45221" lon="7.32703">
        <ele>762</ele>
        <time>2021-06-18T17:41:02+02:00</time>
      </trkpt>
      <trkpt lat="47.45217" lon="7.32896">
        <ele>754</ele>
        <time>2021-06-18T17:41:07+02:00</time>
      </trkpt>
      <trkpt lat="47.45207" lon="7.33048">
        <ele>759</ele>
        <time>2021-06-18T17:41:12+02:00</time>
      </trkpt>
      <trkpt lat="47.45186" lon="7.32918">
        <ele>750</ele>
        <time>2021-06-18T17:41:17+02:00</time>
      </trkpt>
      <trkpt lat="47.45147" lon="7.32807">
        <ele>743</ele>
        <time>2021-06-18T17:41:22+02:00</time>
      </trkpt>
      <trkpt lat="47.45069" lon="7.32626">
        <ele>726</ele>
        <time>2021-06-18T17:41:27+02:00</time>
      </trkpt>
      <trkpt lat="47.45083" lon="7.32803">
        <ele>724</ele>
        <time>2021-06-18T17:41:32+02:00</time>
      </trkpt>
      <trkpt lat="47.4508" lon="7.32846">
        <ele>723</ele>
        <time>2021-06-18T17:41:37+02:00</time>
      </trkpt>
      <trkpt lat="47.45032" lon="7.32899">
        <ele>715</ele>
        <time>2021-06-18T17:41:42+02:00</time>
      </trkpt>
      <trkpt lat="47.4494" lon="7.32868">
        <ele>702</ele>
        <time>2021-06-18T17:41:47+02:00</time>
      </trkpt>
      <trkpt lat="47.44929" lon="7.32835">
        <ele>699</ele>
        <time>2021-06-18T17:41:52+02:00</time>
      </trkpt>
      <trkpt lat="47.44912" lon="7.32848">
        <ele>699</ele>
        <time>2021-06-18T17:41:57+02:00</time>
      </trkpt>
      <trkpt lat="47.44871" lon="7.32946">
        <ele>694</ele>
        <time>2021-06-18T17:42:02+02:00</time>
      </trkpt>
      <trkpt lat="47.44847" lon="7.33093">
        <ele>689</ele>
        <time>2021-06-18T17:42:07+02:00</time>
      </trkpt>
      <trkpt lat="47.44822" lon="7.33238">
        <ele>677</ele>
        <time>2021-06-18T17:42:12+02:00</time>
      </trkpt>
      <trkpt lat="47.44834" lon="7.3334">
        <ele>677</ele>
        <time>2021-06-18T17:42:17+02:00</time>
      </trkpt>
      <trkpt lat="47.44855" lon="7.33437">
        <ele>678</ele>
        <time>2021-06-18T17:42:22+02:00</time>
      </trkpt>
      <trkpt lat="47.4482" lon="7.33529">
        <ele>666</ele>
        <time>2021-06-18T17:42:27+02:00</time>
      </trkpt>
      <trkpt lat="47.4486" lon="7.33609">
        <ele>672</ele>
        <time>2021-06-18T17:42:32+02:00</time>
      </trkpt>
      <trkpt lat="47.44827" lon="7.33668">
        <ele>665</ele>
        <time>2021-06-18T17:42:37+02:00</time>
      </trkpt>
      <trkpt lat="47.44825" lon="7.33715">
        <ele>668</ele>
        <time>2021-06-18T17:42:42+02:00</time>
      </trkpt>
      <trkpt lat="47.44766" lon="7.33783">
        <ele>656</ele>
        <time>2021-06-18T17:42:47+02:00</time>
      </trkpt>
      <trkpt lat="47.44744" lon="7.3391">
        <ele>650</ele>
        <time>2021-06-18T17:42:52+02:00</time>
      </trkpt>
      <trkpt lat="47.44929" lon="7.34128">
        <ele>651</ele>
        <time>2021-06-18T17:42:57+02:00</time>
      </trkpt>
      <trkpt lat="47.4495" lon="7.34208">
        <ele>650</ele>
        <time>2021-06-18T17:43:02+02:00</time>
      </trkpt>
      <trkpt lat="47.44914" lon="7.34263">
        <ele>643</ele>
        <time>2021-06-18T17:43:07+02:00</time>
      </trkpt>
      <trkpt lat="47.44902" lon="7.34341">
        <ele>642</ele>
        <time>2021-06-18T17:43:12+02:00</time>
      </trkpt>
      <trkpt lat="47.45011" lon="7.34317">
        <ele>651</ele>
        <time>2021-06-18T17:43:17+02:00</time>
      </trkpt>
      <trkpt lat="47.45056" lon="7.34338">
        <ele>657</ele>
        <time>2021-06-18T17:43:22+02:00</time>
      </trkpt>
      <trkpt lat="47.45091" lon="7.34365">
        <ele>660</ele>
        <time>2021-06-18T17:43:27+02:00</time>
      </trkpt>
      <trkpt lat="47.45182" lon="7.34428">
        <ele>668</ele>
        <time>2021-06-18T17:43:32+02:00</time>
      </trkpt>
      <trkpt lat="47.45215" lon="7.34455">
        <ele>667</ele>
        <time>2021-06-18T17:43:37+02:00</time>
      </trkpt>
      <trkpt lat="47.45229" lon="7.34444">
        <ele>671</ele>
        <time>2021-06-18T17:43:42+02:00</time>
      </trkpt>
      <trkpt lat="47.4534" lon="7.34439">
        <ele>687</ele>
        <time>2021-06-18T17:43:47+02:00</time>
      </trkpt>
      <trkpt lat="47.45389" lon="7.34457">
        <ele>684</ele>
        <time>2021-06-18T17:43:52+02:00</time>
      </trkpt>
      <trkpt lat="47.454" lon="7.34455">
        <ele>684</ele>
        <time>2021-06-18T17:43:57+02:00</time>
      </trkpt>
      <trkpt lat="47.45437" lon="7.34382">
        <ele>691</ele>
        <time>2021-06-18T17:44:02+02:00</time>
      </trkpt>
      <trkpt lat="47.45468" lon="7.3431">
        <ele>690</ele>
        <time>2021-06-18T17:44:07+02:00</time>
      </trkpt>
      <trkpt lat="47.45473" lon="7.34236">
        <ele>691</ele>
        <time>2021-06-18T17:44:12+02:00</time>
      </trkpt>
      <trkpt lat="47.45527" lon="7.34271">
        <ele>674</ele>
        <time>2021-06-18T17:44:17+02:00</time>
      </trkpt>
      <trkpt lat="47.45539" lon="7.34358">
        <ele>667</ele>
        <time>2021-06-18T17:44:22+02:00</time>
      </trkpt>
      <trkpt lat="47.45526" lon="7.34463">
        <ele>662</ele>
        <time>2021-06-18T17:44:27+02:00</time>
      </trkpt>
      <trkpt lat="47.45464" lon="7.34584">
        <ele>655</ele>
        <time>2021-06-18T17:44:32+02:00</time>
      </trkpt>
      <trkpt lat="47.4552" lon="7.34639">
        <ele>643</ele>
        <time>2021-06-18T17:44:37+02:00</time>
      </trkpt>
      <trkpt lat="47.4555" lon="7.34628">
        <ele>641</ele>
        <time>2021-06-18T17:44:42+02:00</time>
      </trkpt>
      <trkpt lat="47.45591" lon="7.34685">
        <ele>631</ele>
        <time>2021-06-18T17:44:47+02:00</time>
      </trkpt>
      <trkpt lat="47.45494" lon="7.34736">
        <ele>627</ele>
        <time>2021-06-18T17:44:52+02:00</time>
      </trkpt>
      <trkpt lat="47.4552" lon="7.34813">
        <ele>619</ele>
        <time>2021-06-18T17:44:57+02:00</time>
      </trkpt>
      <trkpt lat="47.45569" lon="7.34846">
        <ele>619</ele>
        <time>2021-06-18T17:45:02+02:00</time>
      </trkpt>
      <trkpt lat="47.45585" lon="7.34935">
        <ele>617</ele>
        <time>2021-06-18T17:45:07+02:00</time>
      </trkpt>
      <trkpt lat="47.45596" lon="7.35066">
        <ele>615</ele>
        <time>2021-06-18T17:45:12+02:00</time>
      </trkpt>
      <trkpt lat="47.45657" lon="7.35149">
        <ele>605</ele>
        <time>2021-06-18T17:45:17+02:00</time>
      </trkpt>
      <trkpt lat="47.45671" lon="7.35211">
        <ele>602</ele>
        <time>2021-06-18T17:45:22+02:00</time>
      </trkpt>
      <trkpt lat="47.45701" lon="7.35423">
        <ele>585</ele>
        <time>2021-06-18T17:45:27+02:00</time>
      </trkpt>
      <trkpt lat="47.45731" lon="7.35559">
        <ele>573</ele>
        <time>2021-06-18T17:45:32+02:00</time>
      </trkpt>
      <trkpt lat="47.45784" lon="7.35627">
        <ele>567</ele>
        <time>2021-06-18T17:45:37+02:00</time>
      </trkpt>
      <trkpt lat="47.45773" lon="7.35822">
        <ele>546</ele>
        <time>2021-06-18T17:45:42+02:00</time>
      </trkpt>
      <trkpt lat="47.45754" lon="7.35957">
        <ele>532</ele>
        <time>2021-06-18T17:45:47+02:00</time>
      </trkpt>
      <trkpt lat="47.45741" lon="7.36248">
        <ele>522</ele>
        <time>2021-06-18T17:45:52+02:00</time>
      </trkpt>
      <trkpt lat="47.45719" lon="7.36359">
        <ele>521</ele>
        <time>2021-06-18T17:45:57+02:00</time>
      </trkpt>
      <trkpt lat="47.45707" lon="7.36577">
        <ele>507</ele>
        <time>2021-06-18T17:46:02+02:00</time>
      </trkpt>
      <trkpt lat="47.45733" lon="7.36692">
        <ele>500</ele>
        <time>2021-06-18T17:46:07+02:00</time>
      </trkpt>
      <trkpt lat="47.45801" lon="7.36699">
        <ele>499</ele>
        <time>2021-06-18T17:46:12+02:00</time>
      </trkpt>
      <trkpt lat="47.45871" lon="7.36802">
        <ele>505</ele>
        <time>2021-06-18T17:46:17+02:00</time>
      </trkpt>
      <trkpt lat="47.4592" lon="7.37155">
        <ele>496</ele>
        <time>2021-06-18T17:46:22+02:00</time>
      </trkpt>
      <trkpt lat="47.46149" lon="7.37649">
        <ele>463</ele>
        <time>2021-06-18T17:46:27+02:00</time>
      </trkpt>
      <trkpt lat="47.46283" lon="7.37774">
        <ele>452</ele>
        <time>2021-06-18T17:46:32+02:00</time>
      </trkpt>
      <trkpt lat="47.46326" lon="7.37875">
        <ele>449</ele>
        <time>2021-06-18T17:46:37+02:00</time>
      </trkpt>
      <trkpt lat="47.46423" lon="7.37937">
        <ele>447</ele>
        <time>2021-06-18T17:46:42+02:00</time>
      </trkpt>
      <trkpt lat="47.46547" lon="7.38039">
        <ele>443</ele>
        <time>2021-06-18T17:46:47+02:00</time>
      </trkpt>
      <trkpt lat="47.46518" lon="7.38122">
        <ele>443</ele>
        <time>2021-06-18T17:46:52+02:00</time>
      </trkpt>
      <trkpt lat="47.46562" lon="7.38206">
        <ele>442</ele>
        <time>2021-06-18T17:46:57+02:00</time>
      </trkpt>
      <trkpt lat="47.46621" lon="7.38188">
        <ele>441</ele>
        <time>2021-06-18T17:47:02+02:00</time>
      </trkpt>
      <trkpt lat="47.46639" lon="7.3815">
        <ele>441</ele>
        <time>2021-06-18T17:47:07+02:00</time>
      </trkpt>
      <trkpt lat="47.46663" lon="7.3807">
        <ele>441</ele>
        <time>2021-06-18T17:47:12+02:00</time>
      </trkpt>
      <trkpt lat="47.46547" lon="7.38039">
        <ele>443</ele>
        <time>2021-06-18T17:47:17+02:00</time>
      </trkpt>
      <trkpt lat="47.46345" lon="7.3789">
        <ele>448</ele>
        <time>2021-06-18T17:47:22+02:00</time>
      </trkpt>
      <trkpt lat="47.46291" lon="7.37809">
        <ele>452</ele>
        <time>2021-06-18T17:47:27+02:00</time>
      </trkpt>
      <trkpt lat="47.46269" lon="7.3788">
        <ele>451</ele>
        <time>2021-06-18T17:47:32+02:00</time>
      </trkpt>
      <trkpt lat="47.46212" lon="7.37901">
        <ele>452</ele>
        <time>2021-06-18T17:47:37+02:00</time>
      </trkpt>
      <trkpt lat="47.46168" lon="7.37905">
        <ele>454</ele>
        <time>2021-06-18T17:47:42+02:00</time>
      </trkpt>
      <trkpt lat="47.46092" lon="7.37936">
        <ele>468</ele>
        <time>2021-06-18T17:47:47+02:00</time>
      </trkpt>
      <trkpt lat="47.46034" lon="7.37955">
        <ele>479</ele>
        <time>2021-06-18T17:47:52+02:00</time>
      </trkpt>
      <trkpt lat="47.4598" lon="7.37976">
        <ele>488</ele>
        <time>2021-06-18T17:47:57+02:00</time>
      </trkpt>
      <trkpt lat="47.45944" lon="7.38004">
        <ele>492</ele>
        <time>2021-06-18T17:48:02+02:00</time>
      </trkpt>
      <trkpt lat="47.45923" lon="7.38047">
        <ele>492</ele>
        <time>2021-06-18T17:48:07+02:00</time>
      </trkpt>
      <trkpt lat="47.45893" lon="7.38094">
        <ele>495</ele>
        <time>2021-06-18T17:48:12+02:00</time>
      </trkpt>
      <trkpt lat="47.45871" lon="7.38124">
        <ele>497</ele>
        <time>2021-06-18T17:48:17+02:00</time>
      </trkpt>
      <trkpt lat="47.45832" lon="7.3815">
        <ele>502</ele>
        <time>2021-06-18T17:48:22+02:00</time>
      </trkpt>
      <trkpt lat="47.45784" lon="7.3818">
        <ele>514</ele>
        <time>2021-06-18T17:48:27+02:00</time>
      </trkpt>
      <trkpt lat="47.45716" lon="7.38225">
        <ele>526</ele>
        <time>2021-06-18T17:48:32+02:00</time>
      </trkpt>
      <trkpt lat="47.45617" lon="7.38247">
        <ele>541</ele>
        <time>2021-06-18T17:48:37+02:00</time>
      </trkpt>
      <trkpt lat="47.45585" lon="7.38251">
        <ele>548</ele>
        <time>2021-06-18T17:48:42+02:00</time>
      </trkpt>
      <trkpt lat="47.45543" lon="7.3826">
        <ele>554</ele>
        <time>2021-06-18T17:48:47+02:00</time>
      </trkpt>
      <trkpt lat="47.45515" lon="7.38302">
        <ele>558</ele>
        <time>2021-06-18T17:48:52+02:00</time>
      </trkpt>
      <trkpt lat="47.45474" lon="7.38322">
        <ele>566</ele>
        <time>2021-06-18T17:48:57+02:00</time>
      </trkpt>
      <trkpt lat="47.45441" lon="7.38302">
        <ele>574</ele>
        <time>2021-06-18T17:49:02+02:00</time>
      </trkpt>
      <trkpt lat="47.45401" lon="7.38298">
        <ele>581</ele>
        <time>2021-06-18T17:49:07+02:00</time>
      </trkpt>
      <trkpt lat="47.45367" lon="7.38311">
        <ele>581</ele>
        <time>2021-06-18T17:49:12+02:00</time>
      </trkpt>
      <trkpt lat="47.45317" lon="7.38309">
        <ele>577</ele>
        <time>2021-06-18T17:49:17+02:00</time>
      </trkpt>
      <trkpt lat="47.45303" lon="7.38236">
        <ele>573</ele>
        <time>2021-06-18T17:49:22+02:00</time>
      </trkpt>
      <trkpt lat="47.45272" lon="7.38157">
        <ele>568</ele>
        <time>2021-06-18T17:49:27+02:00</time>
      </trkpt>
      <trkpt lat="47.45238" lon="7.38122">
        <ele>565</ele>
        <time>2021-06-18T17:49:32+02:00</time>
      </trkpt>
      <trkpt lat="47.45224" lon="7.38096">
        <ele>566</ele>
        <time>2021-06-18T17:49:37+02:00</time>
      </trkpt>
      <trkpt lat="47.45187" lon="7.38096">
        <ele>567</ele>
        <time>2021-06-18T17:49:42+02:00</time>
      </trkpt>
      <trkpt lat="47.45153" lon="7.38041">
        <ele>574</ele>
        <time>2021-06-18T17:49:47+02:00</time>
      </trkpt>
      <trkpt lat="47.45126" lon="7.37968">
        <ele>582</ele>
        <time>2021-06-18T17:49:52+02:00</time>
      </trkpt>
      <trkpt lat="47.45081" lon="7.37878">
        <ele>592</ele>
        <time>2021-06-18T17:49:57+02:00</time>
      </trkpt>
      <trkpt lat="47.45051" lon="7.37835">
        <ele>599</ele>
        <time>2021-06-18T17:50:02+02:00</time>
      </trkpt>
      <trkpt lat="47.44938" lon="7.37699">
        <ele>616</ele>
        <time>2021-06-18T17:50:07+02:00</time>
      </trkpt>
      <trkpt lat="47.44833" lon="7.37554">
        <ele>623</ele>
        <time>2021-06-18T17:50:12+02:00</time>
      </trkpt>
      <trkpt lat="47.4479" lon="7.37496">
        <ele>633</ele>
        <time>2021-06-18T17:50:17+02:00</time>
      </trkpt>
      <trkpt lat="47.44726" lon="7.37457">
        <ele>638</ele>
        <time>2021-06-18T17:50:22+02:00</time>
      </trkpt>
      <trkpt lat="47.44706" lon="7.37436">
        <ele>637</ele>
        <time>2021-06-18T17:50:27+02:00</time>
      </trkpt>
      <trkpt lat="47.44635" lon="7.373">
        <ele>625</ele>
        <time>2021-06-18T17:50:32+02:00</time>
      </trkpt>
      <trkpt lat="47.44597" lon="7.37307">
        <ele>620</ele>
        <time>2021-06-18T17:50:37+02:00</time>
      </trkpt>
      <trkpt lat="47.4449" lon="7.37408">
        <ele>619</ele>
        <time>2021-06-18T17:50:42+02:00</time>
      </trkpt>
      <trkpt lat="47.44424" lon="7.37491">
        <ele>621</ele>
        <time>2021-06-18T17:50:47+02:00</time>
      </trkpt>
      <trkpt lat="47.44357" lon="7.37511">
        <ele>636</ele>
        <time>2021-06-18T17:50:52+02:00</time>
      </trkpt>
      <trkpt lat="47.44326" lon="7.37575">
        <ele>638</ele>
        <time>2021-06-18T17:50:57+02:00</time>
      </trkpt>
      <trkpt lat="47.44285" lon="7.37586">
        <ele>632</ele>
        <time>2021-06-18T17:51:02+02:00</time>
      </trkpt>
      <trkpt lat="47.44263" lon="7.37678">
        <ele>632</ele>
        <time>2021-06-18T17:51:07+02:00</time>
      </trkpt>
      <trkpt lat="47.44263" lon="7.37755">
        <ele>634</ele>
        <time>2021-06-18T17:51:12+02:00</time>
      </trkpt>
      <trkpt lat="47.44237" lon="7.37933">
        <ele>639</ele>
        <time>2021-06-18T17:51:17+02:00</time>
      </trkpt>
      <trkpt lat="47.4424" lon="7.37983">
        <ele>642</ele>
        <time>2021-06-18T17:51:22+02:00</time>
      </trkpt>
      <trkpt lat="47.44211" lon="7.38107">
        <ele>644</ele>
        <time>2021-06-18T17:51:27+02:00</time>
      </trkpt>
      <trkpt lat="47.44207" lon="7.38146">
        <ele>647</ele>
        <time>2021-06-18T17:51:32+02:00</time>
      </trkpt>
      <trkpt lat="47.44162" lon="7.38272">
        <ele>656</ele>
        <time>2021-06-18T17:51:37+02:00</time>
      </trkpt>
      <trkpt lat="47.44156" lon="7.38324">
        <ele>657</ele>
        <time>2021-06-18T17:51:42+02:00</time>
      </trkpt>
      <trkpt lat="47.44166" lon="7.3847">
        <ele>673</ele>
        <time>2021-06-18T17:51:47+02:00</time>
      </trkpt>
      <trkpt lat="47.44151" lon="7.38581">
        <ele>674</ele>
        <time>2021-06-18T17:51:52+02:00</time>
      </trkpt>
      <trkpt lat="47.44162" lon="7.38734">
        <ele>689</ele>
        <time>2021-06-18T17:51:57+02:00</time>
      </trkpt>
      <trkpt lat="47.44172" lon="7.3886">
        <ele>692</ele>
        <time>2021-06-18T17:52:02+02:00</time>
      </trkpt>
      <trkpt lat="47.44166" lon="7.38938">
        <ele>693</ele>
        <time>2021-06-18T17:52:07+02:00</time>
      </trkpt>
      <trkpt lat="47.44172" lon="7.38991">
        <ele>693</ele>
        <time>2021-06-18T17:52:12+02:00</time>
      </trkpt>
      <trkpt lat="47.44166" lon="7.39114">
        <ele>693</ele>
        <time>2021-06-18T17:52:17+02:00</time>
      </trkpt>
      <trkpt lat="47.44143" lon="7.39279">
        <ele>688</ele>
        <time>2021-06-18T17:52:22+02:00</time>
      </trkpt>
      <trkpt lat="47.44148" lon="7.3939">
        <ele>686</ele>
        <time>2021-06-18T17:52:27+02:00</time>
      </trkpt>
      <trkpt lat="47.44151" lon="7.39534">
        <ele>685</ele>
        <time>2021-06-18T17:52:32+02:00</time>
      </trkpt>
      <trkpt lat="47.44163" lon="7.3962">
        <ele>690</ele>
        <time>2021-06-18T17:52:37+02:00</time>
      </trkpt>
      <trkpt lat="47.4417" lon="7.39663">
        <ele>693</ele>
        <time>2021-06-18T17:52:42+02:00</time>
      </trkpt>
      <trkpt lat="47.44154" lon="7.3974">
        <ele>694</ele>
        <time>2021-06-18T17:52:47+02:00</time>
      </trkpt>
      <trkpt lat="47.44157" lon="7.39875">
        <ele>701</ele>
        <time>2021-06-18T17:52:52+02:00</time>
      </trkpt>
      <trkpt lat="47.44179" lon="7.39974">
        <ele>704</ele>
        <time>2021-06-18T17:52:57+02:00</time>
      </trkpt>
      <trkpt lat="47.44179" lon="7.40053">
        <ele>707</ele>
        <time>2021-06-18T17:53:02+02:00</time>
      </trkpt>
      <trkpt lat="47.44183" lon="7.40262">
        <ele>721</ele>
        <time>2021-06-18T17:53:07+02:00</time>
      </trkpt>
      <trkpt lat="47.44134" lon="7.40298">
        <ele>734</ele>
        <time>2021-06-18T17:53:12+02:00</time>
      </trkpt>
      <trkpt lat="47.44096" lon="7.4033">
        <ele>743</ele>
        <time>2021-06-18T17:53:17+02:00</time>
      </trkpt>
      <trkpt lat="47.44096" lon="7.40356">
        <ele>746</ele>
        <time>2021-06-18T17:53:22+02:00</time>
      </trkpt>
      <trkpt lat="47.44173" lon="7.40523">
        <ele>754</ele>
        <time>2021-06-18T17:53:27+02:00</time>
      </trkpt>
      <trkpt lat="47.44189" lon="7.40714">
        <ele>758</ele>
        <time>2021-06-18T17:53:32+02:00</time>
      </trkpt>
      <trkpt lat="47.44195" lon="7.40807">
        <ele>764</ele>
        <time>2021-06-18T17:53:37+02:00</time>
      </trkpt>
      <trkpt lat="47.44119" lon="7.40841">
        <ele>770</ele>
        <time>2021-06-18T17:53:42+02:00</time>
      </trkpt>
      <trkpt lat="47.44095" lon="7.40839">
        <ele>771</ele>
        <time>2021-06-18T17:53:47+02:00</time>
      </trkpt>
      <trkpt lat="47.4408" lon="7.40867">
        <ele>768</ele>
        <time>2021-06-18T17:53:52+02:00</time>
      </trkpt>
      <trkpt lat="47.44115" lon="7.40925">
        <ele>766</ele>
        <time>2021-06-18T17:53:57+02:00</time>
      </trkpt>
      <trkpt lat="47.4414" lon="7.41">
        <ele>767</ele>
        <time>2021-06-18T17:54:02+02:00</time>
      </trkpt>
      <trkpt lat="47.44166" lon="7.41043">
        <ele>775</ele>
        <time>2021-06-18T17:54:07+02:00</time>
      </trkpt>
      <trkpt lat="47.44173" lon="7.41113">
        <ele>774</ele>
        <time>2021-06-18T17:54:12+02:00</time>
      </trkpt>
      <trkpt lat="47.44176" lon="7.41141">
        <ele>773</ele>
        <time>2021-06-18T17:54:17+02:00</time>
      </trkpt>
      <trkpt lat="47.44186" lon="7.41154">
        <ele>774</ele>
        <time>2021-06-18T17:54:22+02:00</time>
      </trkpt>
      <trkpt lat="47.44192" lon="7.41186">
        <ele>774</ele>
        <time>2021-06-18T17:54:27+02:00</time>
      </trkpt>
      <trkpt lat="47.44212" lon="7.41238">
        <ele>780</ele>
        <time>2021-06-18T17:54:32+02:00</time>
      </trkpt>
      <trkpt lat="47.44227" lon="7.41307">
        <ele>787</ele>
        <time>2021-06-18T17:54:37+02:00</time>
      </trkpt>
      <trkpt lat="47.44246" lon="7.41377">
        <ele>798</ele>
        <time>2021-06-18T17:54:42+02:00</time>
      </trkpt>
      <trkpt lat="47.4426" lon="7.41433">
        <ele>800</ele>
        <time>2021-06-18T17:54:47+02:00</time>
      </trkpt>
      <trkpt lat="47.44276" lon="7.41485">
        <ele>798</ele>
        <time>2021-06-18T17:54:52+02:00</time>
      </trkpt>
      <trkpt lat="47.44311" lon="7.41532">
        <ele>803</ele>
        <time>2021-06-18T17:54:57+02:00</time>
      </trkpt>
      <trkpt lat="47.44333" lon="7.41583">
        <ele>811</ele>
        <time>2021-06-18T17:55:02+02:00</time>
      </trkpt>
      <trkpt lat="47.44365" lon="7.41607">
        <ele>811</ele>
        <time>2021-06-18T17:55:07+02:00</time>
      </trkpt>
      <trkpt lat="47.44379" lon="7.41622">
        <ele>812</ele>
        <time>2021-06-18T17:55:12+02:00</time>
      </trkpt>
      <trkpt lat="47.44371" lon="7.41667">
        <ele>808</ele>
        <time>2021-06-18T17:55:17+02:00</time>
      </trkpt>
      <trkpt lat="47.44426" lon="7.41706">
        <ele>818</ele>
        <time>2021-06-18T17:55:22+02:00</time>
      </trkpt>
      <trkpt lat="47.44371" lon="7.41667">
        <ele>808</ele>
        <time>2021-06-18T17:55:27+02:00</time>
      </trkpt>
      <trkpt lat="47.44426" lon="7.41706">
        <ele>818</ele>
        <time>2021-06-18T17:55:32+02:00</time>
      </trkpt>
      <trkpt lat="47.44424" lon="7.41749">
        <ele>818</ele>
        <time>2021-06-18T17:55:37+02:00</time>
      </trkpt>
      <trkpt lat="47.44439" lon="7.41796">
        <ele>814</ele>
        <time>2021-06-18T17:55:42+02:00</time>
      </trkpt>
      <trkpt lat="47.44443" lon="7.41837">
        <ele>810</ele>
        <time>2021-06-18T17:55:47+02:00</time>
      </trkpt>
      <trkpt lat="47.44474" lon="7.41864">
        <ele>816</ele>
        <time>2021-06-18T17:55:52+02:00</time>
      </trkpt>
      <trkpt lat="47.44491" lon="7.41927">
        <ele>819</ele>
        <time>2021-06-18T17:55:57+02:00</time>
      </trkpt>
      <trkpt lat="47.44513" lon="7.41965">
        <ele>819</ele>
        <time>2021-06-18T17:56:02+02:00</time>
      </trkpt>
      <trkpt lat="47.44532" lon="7.41982">
        <ele>820</ele>
        <time>2021-06-18T17:56:07+02:00</time>
      </trkpt>
      <trkpt lat="47.44534" lon="7.42021">
        <ele>817</ele>
        <time>2021-06-18T17:56:12+02:00</time>
      </trkpt>
      <trkpt lat="47.44565" lon="7.42075">
        <ele>819</ele>
        <time>2021-06-18T17:56:17+02:00</time>
      </trkpt>
      <trkpt lat="47.44578" lon="7.42098">
        <ele>819</ele>
        <time>2021-06-18T17:56:22+02:00</time>
      </trkpt>
      <trkpt lat="47.44617" lon="7.42118">
        <ele>814</ele>
        <time>2021-06-18T17:56:27+02:00</time>
      </trkpt>
      <trkpt lat="47.44675" lon="7.42173">
        <ele>806</ele>
        <time>2021-06-18T17:56:32+02:00</time>
      </trkpt>
      <trkpt lat="47.447" lon="7.42203">
        <ele>797</ele>
        <time>2021-06-18T17:56:37+02:00</time>
      </trkpt>
      <trkpt lat="47.44723" lon="7.42233">
        <ele>791</ele>
        <time>2021-06-18T17:56:42+02:00</time>
      </trkpt>
      <trkpt lat="47.44761" lon="7.42246">
        <ele>786</ele>
        <time>2021-06-18T17:56:47+02:00</time>
      </trkpt>
      <trkpt lat="47.44794" lon="7.42266">
        <ele>776</ele>
        <time>2021-06-18T17:56:52+02:00</time>
      </trkpt>
      <trkpt lat="47.44826" lon="7.42289">
        <ele>770</ele>
        <time>2021-06-18T17:56:57+02:00</time>
      </trkpt>
      <trkpt lat="47.44887" lon="7.42354">
        <ele>754</ele>
        <time>2021-06-18T17:57:02+02:00</time>
      </trkpt>
      <trkpt lat="47.4492" lon="7.42386">
        <ele>751</ele>
        <time>2021-06-18T17:57:07+02:00</time>
      </trkpt>
      <trkpt lat="47.44965" lon="7.42424">
        <ele>747</ele>
        <time>2021-06-18T17:57:12+02:00</time>
      </trkpt>
      <trkpt lat="47.45009" lon="7.42439">
        <ele>743</ele>
        <time>2021-06-18T17:57:17+02:00</time>
      </trkpt>
      <trkpt lat="47.45038" lon="7.42345">
        <ele>729</ele>
        <time>2021-06-18T17:57:22+02:00</time>
      </trkpt>
      <trkpt lat="47.45066" lon="7.42276">
        <ele>723</ele>
        <time>2021-06-18T17:57:27+02:00</time>
      </trkpt>
      <trkpt lat="47.45071" lon="7.42257">
        <ele>721</ele>
        <time>2021-06-18T17:57:32+02:00</time>
      </trkpt>
      <trkpt lat="47.45113" lon="7.42332">
        <ele>713</ele>
        <time>2021-06-18T17:57:37+02:00</time>
      </trkpt>
      <trkpt lat="47.45178" lon="7.42463">
        <ele>686</ele>
        <time>2021-06-18T17:57:42+02:00</time>
      </trkpt>
      <trkpt lat="47.45221" lon="7.42553">
        <ele>670</ele>
        <time>2021-06-18T17:57:47+02:00</time>
      </trkpt>
      <trkpt lat="47.45258" lon="7.4263">
        <ele>661</ele>
        <time>2021-06-18T17:57:52+02:00</time>
      </trkpt>
      <trkpt lat="47.45309" lon="7.42755">
        <ele>645</ele>
        <time>2021-06-18T17:57:57+02:00</time>
      </trkpt>
      <trkpt lat="47.45355" lon="7.42828">
        <ele>634</ele>
        <time>2021-06-18T17:58:02+02:00</time>
      </trkpt>
      <trkpt lat="47.45398" lon="7.42892">
        <ele>623</ele>
        <time>2021-06-18T17:58:07+02:00</time>
      </trkpt>
      <trkpt lat="47.45487" lon="7.4303">
        <ele>614</ele>
        <time>2021-06-18T17:58:12+02:00</time>
      </trkpt>
      <trkpt lat="47.45518" lon="7.43075">
        <ele>616</ele>
        <time>2021-06-18T17:58:17+02:00</time>
      </trkpt>
      <trkpt lat="47.45556" lon="7.4316">
        <ele>614</ele>
        <time>2021-06-18T17:58:22+02:00</time>
      </trkpt>
      <trkpt lat="47.45597" lon="7.433">
        <ele>596</ele>
        <time>2021-06-18T17:58:27+02:00</time>
      </trkpt>
      <trkpt lat="47.45626" lon="7.43366">
        <ele>590</ele>
        <time>2021-06-18T17:58:32+02:00</time>
      </trkpt>
      <trkpt lat="47.45615" lon="7.43442">
        <ele>578</ele>
        <time>2021-06-18T17:58:37+02:00</time>
      </trkpt>
      <trkpt lat="47.45597" lon="7.43502">
        <ele>572</ele>
        <time>2021-06-18T17:58:42+02:00</time>
      </trkpt>
      <trkpt lat="47.45614" lon="7.4354">
        <ele>568</ele>
        <time>2021-06-18T17:58:47+02:00</time>
      </trkpt>
      <trkpt lat="47.45643" lon="7.43568">
        <ele>563</ele>
        <time>2021-06-18T17:58:52+02:00</time>
      </trkpt>
      <trkpt lat="47.45675" lon="7.43581">
        <ele>558</ele>
        <time>2021-06-18T17:58:57+02:00</time>
      </trkpt>
      <trkpt lat="47.45702" lon="7.43671">
        <ele>548</ele>
        <time>2021-06-18T17:59:02+02:00</time>
      </trkpt>
      <trkpt lat="47.45726" lon="7.43746">
        <ele>536</ele>
        <time>2021-06-18T17:59:07+02:00</time>
      </trkpt>
      <trkpt lat="47.45738" lon="7.43804">
        <ele>527</ele>
        <time>2021-06-18T17:59:12+02:00</time>
      </trkpt>
      <trkpt lat="47.45755" lon="7.43847">
        <ele>519</ele>
        <time>2021-06-18T17:59:17+02:00</time>
      </trkpt>
      <trkpt lat="47.45755" lon="7.43873">
        <ele>517</ele>
        <time>2021-06-18T17:59:22+02:00</time>
      </trkpt>
      <trkpt lat="47.45743" lon="7.43954">
        <ele>514</ele>
        <time>2021-06-18T17:59:27+02:00</time>
      </trkpt>
      <trkpt lat="47.45731" lon="7.44012">
        <ele>514</ele>
        <time>2021-06-18T17:59:32+02:00</time>
      </trkpt>
      <trkpt lat="47.4574" lon="7.44087">
        <ele>503</ele>
        <time>2021-06-18T17:59:37+02:00</time>
      </trkpt>
      <trkpt lat="47.45746" lon="7.44154">
        <ele>495</ele>
        <time>2021-06-18T17:59:42+02:00</time>
      </trkpt>
      <trkpt lat="47.4575" lon="7.44212">
        <ele>490</ele>
        <time>2021-06-18T17:59:47+02:00</time>
      </trkpt>
      <trkpt lat="47.4574" lon="7.44242">
        <ele>491</ele>
        <time>2021-06-18T17:59:52+02:00</time>
      </trkpt>
      <trkpt lat="47.45792" lon="7.44229">
        <ele>482</ele>
        <time>2021-06-18T17:59:57+02:00</time>
      </trkpt>
      <trkpt lat="47.4582" lon="7.44231">
        <ele>477</ele>
        <time>2021-06-18T18:00:02+02:00</time>
      </trkpt>
      <trkpt lat="47.45875" lon="7.44218">
        <ele>473</ele>
        <time>2021-06-18T18:00:07+02:00</time>
      </trkpt>
      <trkpt lat="47.45984" lon="7.44257">
        <ele>463</ele>
        <time>2021-06-18T18:00:12+02:00</time>
      </trkpt>
      <trkpt lat="47.46049" lon="7.44311">
        <ele>469</ele>
        <time>2021-06-18T18:00:17+02:00</time>
      </trkpt>
      <trkpt lat="47.46135" lon="7.44369">
        <ele>471</ele>
        <time>2021-06-18T18:00:22+02:00</time>
      </trkpt>
      <trkpt lat="47.46193" lon="7.44431">
        <ele>474</ele>
        <time>2021-06-18T18:00:27+02:00</time>
      </trkpt>
      <trkpt lat="47.46207" lon="7.44461">
        <ele>474</ele>
        <time>2021-06-18T18:00:32+02:00</time>
      </trkpt>
      <trkpt lat="47.4622" lon="7.44487">
        <ele>474</ele>
        <time>2021-06-18T18:00:37+02:00</time>
      </trkpt>
      <trkpt lat="47.46238" lon="7.44532">
        <ele>470</ele>
        <time>2021-06-18T18:00:42+02:00</time>
      </trkpt>
      <trkpt lat="47.46261" lon="7.44544">
        <ele>467</ele>
        <time>2021-06-18T18:00:47+02:00</time>
      </trkpt>
      <trkpt lat="47.46261" lon="7.44566">
        <ele>464</ele>
        <time>2021-06-18T18:00:52+02:00</time>
      </trkpt>
      <trkpt lat="47.46319" lon="7.44596">
        <ele>465</ele>
        <time>2021-06-18T18:00:57+02:00</time>
      </trkpt>
      <trkpt lat="47.46381" lon="7.44695">
        <ele>475</ele>
        <time>2021-06-18T18:01:02+02:00</time>
      </trkpt>
      <trkpt lat="47.46421" lon="7.44755">
        <ele>485</ele>
        <time>2021-06-18T18:01:07+02:00</time>
      </trkpt>
      <trkpt lat="47.46455" lon="7.44811">
        <ele>485</ele>
        <time>2021-06-18T18:01:12+02:00</time>
      </trkpt>
      <trkpt lat="47.46487" lon="7.44841">
        <ele>490</ele>
        <time>2021-06-18T18:01:17+02:00</time>
      </trkpt>
      <trkpt lat="47.46499" lon="7.44841">
        <ele>491</ele>
        <time>2021-06-18T18:01:22+02:00</time>
      </trkpt>
      <trkpt lat="47.46522" lon="7.44858">
        <ele>495</ele>
        <time>2021-06-18T18:01:27+02:00</time>
      </trkpt>
      <trkpt lat="47.46549" lon="7.44867">
        <ele>498</ele>
        <time>2021-06-18T18:01:32+02:00</time>
      </trkpt>
      <trkpt lat="47.46605" lon="7.44895">
        <ele>502</ele>
        <time>2021-06-18T18:01:37+02:00</time>
      </trkpt>
      <trkpt lat="47.46666" lon="7.44927">
        <ele>505</ele>
        <time>2021-06-18T18:01:42+02:00</time>
      </trkpt>
      <trkpt lat="47.46728" lon="7.44972">
        <ele>509</ele>
        <time>2021-06-18T18:01:47+02:00</time>
      </trkpt>
      <trkpt lat="47.46764" lon="7.45025">
        <ele>513</ele>
        <time>2021-06-18T18:01:52+02:00</time>
      </trkpt>
      <trkpt lat="47.46831" lon="7.45109">
        <ele>519</ele>
        <time>2021-06-18T18:01:57+02:00</time>
      </trkpt>
      <trkpt lat="47.46891" lon="7.4521">
        <ele>521</ele>
        <time>2021-06-18T18:02:02+02:00</time>
      </trkpt>
      <trkpt lat="47.46872" lon="7.45302">
        <ele>521</ele>
        <time>2021-06-18T18:02:07+02:00</time>
      </trkpt>
      <trkpt lat="47.46882" lon="7.4539">
        <ele>514</ele>
        <time>2021-06-18T18:02:12+02:00</time>
      </trkpt>
      <trkpt lat="47.46905" lon="7.45442">
        <ele>511</ele>
        <time>2021-06-18T18:02:17+02:00</time>
      </trkpt>
      <trkpt lat="47.46956" lon="7.45495">
        <ele>512</ele>
        <time>2021-06-18T18:02:22+02:00</time>
      </trkpt>
      <trkpt lat="47.46982" lon="7.45553">
        <ele>512</ele>
        <time>2021-06-18T18:02:27+02:00</time>
      </trkpt>
      <trkpt lat="47.46992" lon="7.45646">
        <ele>507</ele>
        <time>2021-06-18T18:02:32+02:00</time>
      </trkpt>
      <trkpt lat="47.46991" lon="7.45699">
        <ele>504</ele>
        <time>2021-06-18T18:02:37+02:00</time>
      </trkpt>
      <trkpt lat="47.47028" lon="7.45735">
        <ele>508</ele>
        <time>2021-06-18T18:02:42+02:00</time>
      </trkpt>
      <trkpt lat="47.47092" lon="7.45735">
        <ele>515</ele>
        <time>2021-06-18T18:02:47+02:00</time>
      </trkpt>
      <trkpt lat="47.47111" lon="7.45796">
        <ele>518</ele>
        <time>2021-06-18T18:02:52+02:00</time>
      </trkpt>
      <trkpt lat="47.47141" lon="7.45847">
        <ele>525</ele>
        <time>2021-06-18T18:02:57+02:00</time>
      </trkpt>
      <trkpt lat="47.47165" lon="7.45871">
        <ele>529</ele>
        <time>2021-06-18T18:03:02+02:00</time>
      </trkpt>
      <trkpt lat="47.47189" lon="7.45908">
        <ele>529</ele>
        <time>2021-06-18T18:03:07+02:00</time>
      </trkpt>
      <trkpt lat="47.47257" lon="7.46063">
        <ele>533</ele>
        <time>2021-06-18T18:03:12+02:00</time>
      </trkpt>
      <trkpt lat="47.47293" lon="7.46185">
        <ele>538</ele>
        <time>2021-06-18T18:03:17+02:00</time>
      </trkpt>
      <trkpt lat="47.47341" lon="7.4622">
        <ele>544</ele>
        <time>2021-06-18T18:03:22+02:00</time>
      </trkpt>
      <trkpt lat="47.47403" lon="7.46293">
        <ele>554</ele>
        <time>2021-06-18T18:03:27+02:00</time>
      </trkpt>
      <trkpt lat="47.47493" lon="7.46414">
        <ele>563</ele>
        <time>2021-06-18T18:03:32+02:00</time>
      </trkpt>
      <trkpt lat="47.47528" lon="7.46472">
        <ele>564</ele>
        <time>2021-06-18T18:03:37+02:00</time>
      </trkpt>
      <trkpt lat="47.47569" lon="7.46549">
        <ele>564</ele>
        <time>2021-06-18T18:03:42+02:00</time>
      </trkpt>
      <trkpt lat="47.47623" lon="7.46654">
        <ele>566</ele>
        <time>2021-06-18T18:03:47+02:00</time>
      </trkpt>
      <trkpt lat="47.47688" lon="7.46697">
        <ele>575</ele>
        <time>2021-06-18T18:03:52+02:00</time>
      </trkpt>
      <trkpt lat="47.47739" lon="7.46742">
        <ele>580</ele>
        <time>2021-06-18T18:03:57+02:00</time>
      </trkpt>
      <trkpt lat="47.4781" lon="7.46789">
        <ele>585</ele>
        <time>2021-06-18T18:04:02+02:00</time>
      </trkpt>
      <trkpt lat="47.4782" lon="7.46836">
        <ele>587</ele>
        <time>2021-06-18T18:04:07+02:00</time>
      </trkpt>
      <trkpt lat="47.47873" lon="7.46984">
        <ele>587</ele>
        <time>2021-06-18T18:04:12+02:00</time>
      </trkpt>
      <trkpt lat="47.47923" lon="7.47107">
        <ele>591</ele>
        <time>2021-06-18T18:04:17+02:00</time>
      </trkpt>
      <trkpt lat="47.47974" lon="7.47218">
        <ele>590</ele>
        <time>2021-06-18T18:04:22+02:00</time>
      </trkpt>
      <trkpt lat="47.48013" lon="7.47267">
        <ele>589</ele>
        <time>2021-06-18T18:04:27+02:00</time>
      </trkpt>
      <trkpt lat="47.48045" lon="7.4734">
        <ele>582</ele>
        <time>2021-06-18T18:04:32+02:00</time>
      </trkpt>
      <trkpt lat="47.48031" lon="7.47433">
        <ele>583</ele>
        <time>2021-06-18T18:04:37+02:00</time>
      </trkpt>
      <trkpt lat="47.47997" lon="7.47503">
        <ele>587</ele>
        <time>2021-06-18T18:04:42+02:00</time>
      </trkpt>
      <trkpt lat="47.47973" lon="7.47538">
        <ele>588</ele>
        <time>2021-06-18T18:04:47+02:00</time>
      </trkpt>
      <trkpt lat="47.47922" lon="7.47606">
        <ele>587</ele>
        <time>2021-06-18T18:04:52+02:00</time>
      </trkpt>
      <trkpt lat="47.47899" lon="7.4769">
        <ele>579</ele>
        <time>2021-06-18T18:04:57+02:00</time>
      </trkpt>
      <trkpt lat="47.47884" lon="7.4781">
        <ele>570</ele>
        <time>2021-06-18T18:05:02+02:00</time>
      </trkpt>
      <trkpt lat="47.47875" lon="7.47892">
        <ele>562</ele>
        <time>2021-06-18T18:05:07+02:00</time>
      </trkpt>
      <trkpt lat="47.47883" lon="7.48029">
        <ele>553</ele>
        <time>2021-06-18T18:05:12+02:00</time>
      </trkpt>
      <trkpt lat="47.47899" lon="7.48134">
        <ele>545</ele>
        <time>2021-06-18T18:05:17+02:00</time>
      </trkpt>
      <trkpt lat="47.47891" lon="7.48173">
        <ele>539</ele>
        <time>2021-06-18T18:05:22+02:00</time>
      </trkpt>
      <trkpt lat="47.47923" lon="7.4831">
        <ele>530</ele>
        <time>2021-06-18T18:05:27+02:00</time>
      </trkpt>
      <trkpt lat="47.47967" lon="7.48473">
        <ele>526</ele>
        <time>2021-06-18T18:05:32+02:00</time>
      </trkpt>
      <trkpt lat="47.48005" lon="7.48566">
        <ele>527</ele>
        <time>2021-06-18T18:05:37+02:00</time>
      </trkpt>
      <trkpt lat="47.4805" lon="7.48694">
        <ele>526</ele>
        <time>2021-06-18T18:05:42+02:00</time>
      </trkpt>
      <trkpt lat="47.48084" lon="7.48782">
        <ele>523</ele>
        <time>2021-06-18T18:05:47+02:00</time>
      </trkpt>
      <trkpt lat="47.48073" lon="7.48817">
        <ele>520</ele>
        <time>2021-06-18T18:05:52+02:00</time>
      </trkpt>
      <trkpt lat="47.47944" lon="7.48855">
        <ele>509</ele>
        <time>2021-06-18T18:05:57+02:00</time>
      </trkpt>
      <trkpt lat="47.47733" lon="7.48926">
        <ele>507</ele>
        <time>2021-06-18T18:06:02+02:00</time>
      </trkpt>
      <trkpt lat="47.4768" lon="7.48948">
        <ele>511</ele>
        <time>2021-06-18T18:06:07+02:00</time>
      </trkpt>
      <trkpt lat="47.47654" lon="7.48993">
        <ele>512</ele>
        <time>2021-06-18T18:06:12+02:00</time>
      </trkpt>
      <trkpt lat="47.47649" lon="7.49021">
        <ele>512</ele>
        <time>2021-06-18T18:06:17+02:00</time>
      </trkpt>
      <trkpt lat="47.47703" lon="7.49042">
        <ele>509</ele>
        <time>2021-06-18T18:06:22+02:00</time>
      </trkpt>
      <trkpt lat="47.47735" lon="7.49076">
        <ele>507</ele>
        <time>2021-06-18T18:06:27+02:00</time>
      </trkpt>
      <trkpt lat="47.47749" lon="7.4913">
        <ele>506</ele>
        <time>2021-06-18T18:06:32+02:00</time>
      </trkpt>
      <trkpt lat="47.47803" lon="7.49248">
        <ele>503</ele>
        <time>2021-06-18T18:06:37+02:00</time>
      </trkpt>
      <trkpt lat="47.47835" lon="7.49338">
        <ele>495</ele>
        <time>2021-06-18T18:06:42+02:00</time>
      </trkpt>
      <trkpt lat="47.47891" lon="7.49407">
        <ele>489</ele>
        <time>2021-06-18T18:06:47+02:00</time>
      </trkpt>
      <trkpt lat="47.47961" lon="7.49433">
        <ele>495</ele>
        <time>2021-06-18T18:06:52+02:00</time>
      </trkpt>
      <trkpt lat="47.47994" lon="7.49488">
        <ele>494</ele>
        <time>2021-06-18T18:06:57+02:00</time>
      </trkpt>
      <trkpt lat="47.48048" lon="7.49505">
        <ele>498</ele>
        <time>2021-06-18T18:07:02+02:00</time>
      </trkpt>
      <trkpt lat="47.48087" lon="7.49475">
        <ele>505</ele>
        <time>2021-06-18T18:07:07+02:00</time>
      </trkpt>
      <trkpt lat="47.48119" lon="7.49396">
        <ele>507</ele>
        <time>2021-06-18T18:07:12+02:00</time>
      </trkpt>
      <trkpt lat="47.48148" lon="7.49261">
        <ele>519</ele>
        <time>2021-06-18T18:07:17+02:00</time>
      </trkpt>
      <trkpt lat="47.48183" lon="7.49074">
        <ele>526</ele>
        <time>2021-06-18T18:07:22+02:00</time>
      </trkpt>
      <trkpt lat="47.48218" lon="7.49016">
        <ele>527</ele>
        <time>2021-06-18T18:07:27+02:00</time>
      </trkpt>
      <trkpt lat="47.48206" lon="7.48857">
        <ele>532</ele>
        <time>2021-06-18T18:07:32+02:00</time>
      </trkpt>
      <trkpt lat="47.48195" lon="7.48789">
        <ele>536</ele>
        <time>2021-06-18T18:07:37+02:00</time>
      </trkpt>
      <trkpt lat="47.48182" lon="7.48744">
        <ele>541</ele>
        <time>2021-06-18T18:07:42+02:00</time>
      </trkpt>
      <trkpt lat="47.48209" lon="7.48744">
        <ele>537</ele>
        <time>2021-06-18T18:07:47+02:00</time>
      </trkpt>
      <trkpt lat="47.48225" lon="7.48724">
        <ele>537</ele>
        <time>2021-06-18T18:07:52+02:00</time>
      </trkpt>
      <trkpt lat="47.48263" lon="7.48501">
        <ele>527</ele>
        <time>2021-06-18T18:07:57+02:00</time>
      </trkpt>
      <trkpt lat="47.4827" lon="7.48647">
        <ele>528</ele>
        <time>2021-06-18T18:08:02+02:00</time>
      </trkpt>
      <trkpt lat="47.48277" lon="7.48739">
        <ele>524</ele>
        <time>2021-06-18T18:08:07+02:00</time>
      </trkpt>
      <trkpt lat="47.48286" lon="7.48804">
        <ele>521</ele>
        <time>2021-06-18T18:08:12+02:00</time>
      </trkpt>
      <trkpt lat="47.48344" lon="7.48881">
        <ele>506</ele>
        <time>2021-06-18T18:08:17+02:00</time>
      </trkpt>
      <trkpt lat="47.48367" lon="7.48965">
        <ele>501</ele>
        <time>2021-06-18T18:08:22+02:00</time>
      </trkpt>
      <trkpt lat="47.48395" lon="7.49046">
        <ele>494</ele>
        <time>2021-06-18T18:08:27+02:00</time>
      </trkpt>
      <trkpt lat="47.48441" lon="7.49124">
        <ele>486</ele>
        <time>2021-06-18T18:08:32+02:00</time>
      </trkpt>
      <trkpt lat="47.48472" lon="7.49143">
        <ele>482</ele>
        <time>2021-06-18T18:08:37+02:00</time>
      </trkpt>
      <trkpt lat="47.48541" lon="7.491">
        <ele>481</ele>
        <time>2021-06-18T18:08:42+02:00</time>
      </trkpt>
      <trkpt lat="47.48553" lon="7.49057">
        <ele>481</ele>
        <time>2021-06-18T18:08:47+02:00</time>
      </trkpt>
      <trkpt lat="47.48586" lon="7.48991">
        <ele>482</ele>
        <time>2021-06-18T18:08:52+02:00</time>
      </trkpt>
      <trkpt lat="47.48627" lon="7.48969">
        <ele>483</ele>
        <time>2021-06-18T18:08:57+02:00</time>
      </trkpt>
      <trkpt lat="47.48692" lon="7.48969">
        <ele>491</ele>
        <time>2021-06-18T18:09:02+02:00</time>
      </trkpt>
      <trkpt lat="47.48732" lon="7.48939">
        <ele>496</ele>
        <time>2021-06-18T18:09:07+02:00</time>
      </trkpt>
      <trkpt lat="47.48779" lon="7.48879">
        <ele>504</ele>
        <time>2021-06-18T18:09:12+02:00</time>
      </trkpt>
      <trkpt lat="47.48809" lon="7.48872">
        <ele>513</ele>
        <time>2021-06-18T18:09:17+02:00</time>
      </trkpt>
      <trkpt lat="47.48821" lon="7.48881">
        <ele>517</ele>
        <time>2021-06-18T18:09:22+02:00</time>
      </trkpt>
      <trkpt lat="47.48826" lon="7.48933">
        <ele>521</ele>
        <time>2021-06-18T18:09:27+02:00</time>
      </trkpt>
      <trkpt lat="47.4883" lon="7.49006">
        <ele>526</ele>
        <time>2021-06-18T18:09:32+02:00</time>
      </trkpt>
      <trkpt lat="47.48795" lon="7.49012">
        <ele>517</ele>
        <time>2021-06-18T18:09:37+02:00</time>
      </trkpt>
      <trkpt lat="47.48805" lon="7.49074">
        <ele>520</ele>
        <time>2021-06-18T18:09:42+02:00</time>
      </trkpt>
      <trkpt lat="47.48808" lon="7.49117">
        <ele>521</ele>
        <time>2021-06-18T18:09:47+02:00</time>
      </trkpt>
      <trkpt lat="47.4884" lon="7.4913">
        <ele>528</ele>
        <time>2021-06-18T18:09:52+02:00</time>
      </trkpt>
      <trkpt lat="47.48859" lon="7.49111">
        <ele>525</ele>
        <time>2021-06-18T18:09:57+02:00</time>
      </trkpt>
      <trkpt lat="47.48844" lon="7.4907">
        <ele>527</ele>
        <time>2021-06-18T18:10:02+02:00</time>
      </trkpt>
      <trkpt lat="47.48867" lon="7.49055">
        <ele>524</ele>
        <time>2021-06-18T18:10:07+02:00</time>
      </trkpt>
      <trkpt lat="47.4888" lon="7.49078">
        <ele>522</ele>
        <time>2021-06-18T18:10:12+02:00</time>
      </trkpt>
      <trkpt lat="47.4888" lon="7.49014">
        <ele>524</ele>
        <time>2021-06-18T18:10:17+02:00</time>
      </trkpt>
      <trkpt lat="47.48857" lon="7.48984">
        <ele>525</ele>
        <time>2021-06-18T18:10:22+02:00</time>
      </trkpt>
      <trkpt lat="47.48822" lon="7.48986">
        <ele>523</ele>
        <time>2021-06-18T18:10:27+02:00</time>
      </trkpt>
      <trkpt lat="47.48824" lon="7.48909">
        <ele>520</ele>
        <time>2021-06-18T18:10:32+02:00</time>
      </trkpt>
      <trkpt lat="47.48805" lon="7.48853">
        <ele>510</ele>
        <time>2021-06-18T18:10:37+02:00</time>
      </trkpt>
      <trkpt lat="47.48811" lon="7.488">
        <ele>507</ele>
        <time>2021-06-18T18:10:42+02:00</time>
      </trkpt>
      <trkpt lat="47.48822" lon="7.48761">
        <ele>507</ele>
        <time>2021-06-18T18:10:47+02:00</time>
      </trkpt>
      <trkpt lat="47.48815" lon="7.4875">
        <ele>504</ele>
        <time>2021-06-18T18:10:52+02:00</time>
      </trkpt>
      <trkpt lat="47.48821" lon="7.48727">
        <ele>504</ele>
        <time>2021-06-18T18:10:57+02:00</time>
      </trkpt>
      <trkpt lat="47.48811" lon="7.48705">
        <ele>499</ele>
        <time>2021-06-18T18:11:02+02:00</time>
      </trkpt>
      <trkpt lat="47.48812" lon="7.48486">
        <ele>470</ele>
        <time>2021-06-18T18:11:07+02:00</time>
      </trkpt>
      <trkpt lat="47.4883" lon="7.48465">
        <ele>473</ele>
        <time>2021-06-18T18:11:12+02:00</time>
      </trkpt>
      <trkpt lat="47.48846" lon="7.4837">
        <ele>462</ele>
        <time>2021-06-18T18:11:17+02:00</time>
      </trkpt>
      <trkpt lat="47.48848" lon="7.48308">
        <ele>451</ele>
        <time>2021-06-18T18:11:22+02:00</time>
      </trkpt>
      <trkpt lat="47.48872" lon="7.48231">
        <ele>436</ele>
        <time>2021-06-18T18:11:27+02:00</time>
      </trkpt>
      <trkpt lat="47.48901" lon="7.48179">
        <ele>428</ele>
        <time>2021-06-18T18:11:32+02:00</time>
      </trkpt>
      <trkpt lat="47.48941" lon="7.48136">
        <ele>418</ele>
        <time>2021-06-18T18:11:37+02:00</time>
      </trkpt>
      <trkpt lat="47.49004" lon="7.4813">
        <ele>412</ele>
        <time>2021-06-18T18:11:42+02:00</time>
      </trkpt>
      <trkpt lat="47.49018" lon="7.48126">
        <ele>410</ele>
        <time>2021-06-18T18:11:47+02:00</time>
      </trkpt>
      <trkpt lat="47.49091" lon="7.48167">
        <ele>405</ele>
        <time>2021-06-18T18:11:52+02:00</time>
      </trkpt>
      <trkpt lat="47.49173" lon="7.48244">
        <ele>391</ele>
        <time>2021-06-18T18:11:57+02:00</time>
      </trkpt>
      <trkpt lat="47.49214" lon="7.48295">
        <ele>388</ele>
        <time>2021-06-18T18:12:02+02:00</time>
      </trkpt>
      <trkpt lat="47.49259" lon="7.48334">
        <ele>385</ele>
        <time>2021-06-18T18:12:07+02:00</time>
      </trkpt>
      <trkpt lat="47.49291" lon="7.4836">
        <ele>380</ele>
        <time>2021-06-18T18:12:12+02:00</time>
      </trkpt>
    </trkseg>
  </trk>
</gpx>